Another Hard Day at the Office Weather Stats

 
 
 

High monthly outside Temperature, 22.8 , C
Low monthly outside Temperature, -1.0 , C
High yearly outside Temperature, 30.9 , C
Low yearly outside Temperature, -2.2 , C

Low monthly barometer, 1001.1 , mb
High monthly barometer, 1028.0 , mb
Low yearly barometer, 975.0 , mb
High yearly barometer 1041.1 , mb

High wind speed, 25.0 , mph
Time of High wind speed, 21:37 , mph
High monthly wind speed, 47.0 , mph
High yearly wind speed, 55.0 , mph

 

 




3126
                    Temp     Hi    Low   Out    Dew  Wind  Wind   Wind    Hi    Hi   Wind   Heat    THW                Rain    Heat    Cool    In     In    In     In     In   In Air  Wind  Wind    ISS   Arc.
  Date    Time     Out   Temp   Temp   Hum    Pt. Speed   Dir    Run Speed   Dir  Chill  Index  Index   Bar    Rain  Rate    D-D     D-D    Temp   Hum    Dew   Heat    EMC Density  Samp   Tx   Recept  Int.
---------------------------------------------------------------------------------------------------------------------------------------------------------------------------------------------------------------
27/05/16   0:05   13.9   14.0   13.9    81   10.7   6.0   ENE   0.50  11.0   ENE   13.4   13.8   13.2  1014.3  0.00  0.00   0.015   0.000   27.9    44   14.5   27.8   8.15  .0721    115    1    100.0    5 
27/05/16   0:10   13.9   13.9   13.9    80   10.5   5.0   ENE   0.42   9.0     E   13.6   13.8   13.4  1014.3  0.00  0.00   0.015   0.000   27.8    44   14.5   27.7   8.15  .0721    117    1    100.0    5 
27/05/16   0:15   13.9   13.9   13.9    80   10.5   3.0    NE   0.25   7.0   ENE   13.9   13.8   13.8  1014.4  0.00  0.00   0.015   0.000   27.8    44   14.5   27.7   8.15  .0721    117    1    100.0    5 
27/05/16   0:20   13.9   13.9   13.9    80   10.5   2.0    NE   0.17   4.0    NE   13.9   13.7   13.7  1014.4  0.00  0.00   0.015   0.000   27.8    44   14.4   27.7   8.15  .0722    117    1    100.0    5 
27/05/16   0:25   13.9   13.9   13.9    80   10.5   1.0   NNE   0.08   4.0   NNE   13.9   13.7   13.7  1014.6  0.00  0.00   0.015   0.000   27.8    44   14.4   27.7   8.15  .0722    116    1    100.0    5 
27/05/16   0:30   13.9   13.9   13.9    80   10.5   1.0    NE   0.08   4.0    NE   13.9   13.7   13.7  1014.5  0.00  0.00   0.015   0.000   27.8    44   14.4   27.7   8.15  .0722    116    1    100.0    5 
27/05/16   0:35   13.9   13.9   13.9    80   10.5   3.0    NE   0.25   7.0    NE   13.9   13.7   13.7  1014.4  0.00  0.00   0.015   0.000   27.7    44   14.4   27.6   8.15  .0722    116    1    100.0    5 
27/05/16   0:40   13.9   13.9   13.8    80   10.5   0.0    NE   0.00   3.0    NE   13.9   13.7   13.7  1014.5  0.00  0.00   0.015   0.000   27.7    44   14.4   27.6   8.15  .0722    117    1    100.0    5 
27/05/16   0:45   13.9   13.9   13.8    80   10.5   2.0     E   0.17   4.0     E   13.9   13.7   13.7  1014.8  0.00  0.00   0.015   0.000   27.7    44   14.3   27.5   8.15  .0722    117    1    100.0    5 
27/05/16   0:50   13.9   13.9   13.8    80   10.5   1.0     E   0.08   3.0     E   13.9   13.7   13.7  1014.8  0.00  0.00   0.015   0.000   27.7    44   14.3   27.5   8.15  .0722    116    1    100.0    5 
27/05/16   0:55   13.9   13.9   13.9    80   10.5   2.0     E   0.17   3.0     E   13.9   13.8   13.8  1014.7  0.00  0.00   0.015   0.000   27.7    44   14.3   27.5   8.15  .0722    117    1    100.0    5 
27/05/16   1:00   13.9   13.9   13.9    80   10.5   2.0     E   0.17   3.0   ENE   13.9   13.8   13.8  1014.8  0.00  0.00   0.015   0.000   27.6    44   14.3   27.4   8.15  .0722    116    1    100.0    5 
27/05/16   1:05   14.0   14.0   13.9    80   10.6   3.0     E   0.25   8.0   ESE   14.0   13.8   13.8  1014.8  0.00  0.00   0.015   0.000   27.6    44   14.3   27.4   8.15  .0722    117    1    100.0    5 
27/05/16   1:10   14.2   14.2   14.0    81   11.0  10.0    SE   0.83  12.0    SE   12.3   14.1   12.2  1014.9  0.00  0.00   0.014   0.000   27.6    44   14.2   27.4   8.15  .0723    117    1    100.0    5 
27/05/16   1:15   14.1   14.2   14.1    81   10.8  10.0   ESE   0.83  13.0     E   12.1   13.9   12.0  1014.8  0.00  0.00   0.015   0.000   27.5    44   14.2   27.3   8.15  .0723    118    1    100.0    5 
27/05/16   1:20   14.1   14.1   14.1    81   10.8   8.0   ESE   0.67  13.0     E   12.9   13.9   12.8  1014.7  0.00  0.00   0.015   0.000   27.5    44   14.2   27.3   8.15  .0723    117    1    100.0    5 
27/05/16   1:25   14.0   14.1   14.0    81   10.8   9.0     E   0.75  14.0     E   12.4   13.9   12.3  1014.6  0.00  0.00   0.015   0.000   27.5    44   14.2   27.3   8.15  .0723    117    1    100.0    5 
27/05/16   1:30   13.9   14.1   13.9    81   10.7   9.0     E   0.75  13.0   ENE   12.3   13.8   12.2  1014.6  0.00  0.00   0.015   0.000   27.4    44   14.1   27.2   8.15  .0723    117    1    100.0    5 
27/05/16   1:35   13.8   13.9   13.8    81   10.6   8.0     E   0.67  13.0   ENE   12.6   13.6   12.4  1014.5  0.00  0.00   0.016   0.000   27.4    44   14.1   27.2   8.15  .0723    116    1    100.0    5 
27/05/16   1:40   13.7   13.8   13.7    81   10.5   6.0     E   0.50  10.0   ENE   13.1   13.5   12.9  1014.5  0.00  0.00   0.016   0.000   27.4    44   14.1   27.2   8.15  .0723    117    1    100.0    5 
27/05/16   1:45   13.6   13.7   13.6    81   10.4   5.0   ENE   0.42   9.0   ENE   13.3   13.4   13.1  1014.4  0.00  0.00   0.016   0.000   27.4    44   14.1   27.2   8.15  .0723    116    1    100.0    5 
27/05/16   1:50   13.6   13.6   13.5    81   10.4   4.0   ENE   0.33  10.0    NE   13.5   13.4   13.3  1014.5  0.00  0.00   0.017   0.000   27.3    44   14.0   27.1   8.15  .0723    117    1    100.0    5 
27/05/16   1:55   13.5   13.6   13.5    81   10.3   3.0    NE   0.25   6.0   NNE   13.5   13.3   13.3  1014.5  0.00  0.00   0.017   0.000   27.3    44   14.0   27.1   8.15  .0723    116    1    100.0    5 
27/05/16   2:00   13.6   13.6   13.5    82   10.5   4.0    NE   0.33   7.0    NE   13.5   13.4   13.4  1014.5  0.00  0.00   0.017   0.000   27.3    44   14.0   27.0   8.15  .0723    116    1    100.0    5 
27/05/16   2:05   13.6   13.6   13.5    82   10.5   2.0    NE   0.17   5.0    NE   13.6   13.4   13.4  1014.6  0.00  0.00   0.017   0.000   27.3    44   14.0   27.0   8.15  .0723    116    1    100.0    5 
27/05/16   2:10   13.5   13.6   13.5    82   10.5   4.0    NE   0.33   7.0   ENE   13.4   13.4   13.3  1014.5  0.00  0.00   0.017   0.000   27.2    44   13.9   26.9   8.15  .0723    117    1    100.0    5 
27/05/16   2:15   13.4   13.5   13.4    82   10.4   4.0   NNE   0.33   7.0   NNE   13.3   13.3   13.2  1014.5  0.00  0.00   0.017   0.000   27.2    44   13.9   26.9   8.15  .0723    118    1    100.0    5 
27/05/16   2:20   13.3   13.4   13.3    82   10.3   3.0    NE   0.25   7.0    NE   13.3   13.2   13.2  1014.6  0.00  0.00   0.017   0.000   27.2    43   13.5   26.8   8.03  .0724    114    1    100.0    5 
27/05/16   2:25   13.3   13.3   13.3    83   10.5   3.0    NE   0.25   5.0   NNE   13.3   13.2   13.2  1014.6  0.00  0.00   0.017   0.000   27.2    44   13.9   26.9   8.15  .0724    117    1    100.0    5 
27/05/16   2:30   13.3   13.3   13.3    83   10.5   2.0    NE   0.17   6.0   NNE   13.3   13.2   13.2  1014.6  0.00  0.00   0.017   0.000   27.1    43   13.5   26.8   8.03  .0724    116    1    100.0    5 
27/05/16   2:35   13.3   13.3   13.3    83   10.5   3.0    NE   0.25   5.0    NE   13.3   13.2   13.2  1014.7  0.00  0.00   0.018   0.000   27.1    43   13.5   26.8   8.03  .0724    116    1    100.0    5 
27/05/16   2:40   13.3   13.3   13.3    84   10.6   4.0   NNE   0.33   7.0   NNE   13.2   13.2   13.1  1014.6  0.00  0.00   0.018   0.000   27.1    43   13.4   26.7   8.04  .0724    116    1    100.0    5 
27/05/16   2:45   13.2   13.2   13.2    84   10.5   6.0   NNE   0.50  10.0   NNE   12.4   13.1   12.4  1014.5  0.00  0.00   0.018   0.000   27.1    43   13.4   26.7   8.04  .0724    116    1    100.0    5 
27/05/16   2:50   13.1   13.2   13.1    84   10.4   5.0   NNE   0.42   9.0    NE   12.6   13.0   12.6  1014.4  0.00  0.00   0.018   0.000   27.0    43   13.4   26.7   8.04  .0724    117    1    100.0    5 
27/05/16   2:55   12.9   13.1   12.9    84   10.3   6.0   NNE   0.50  11.0   NNE   12.2   12.9   12.2  1014.5  0.00  0.00   0.019   0.000   27.0    43   13.4   26.7   8.04  .0724    116    1    100.0    5 
27/05/16   3:00   12.8   12.9   12.8    85   10.4   5.0   NNE   0.42   8.0   NNE   12.3   12.8   12.3  1014.5  0.00  0.00   0.019   0.000   26.9    43   13.3   26.6   8.04  .0725    115    1    100.0    5 
27/05/16   3:05   12.7   12.8   12.7    85   10.3   4.0   NNE   0.33   7.0    NE   12.5   12.7   12.4  1014.6  0.00  0.00   0.019   0.000   26.9    43   13.3   26.6   8.04  .0725    114    1    100.0    5 
27/05/16   3:10   12.7   12.8   12.7    85   10.2   4.0    NE   0.33   8.0    NE   12.4   12.6   12.4  1014.7  0.00  0.00   0.020   0.000   26.9    43   13.3   26.6   8.04  .0725    117    1    100.0    5 
27/05/16   3:15   12.6   12.7   12.6    85   10.1   4.0   NNE   0.33   8.0    NE   12.3   12.5   12.3  1014.6  0.00  0.00   0.020   0.000   26.9    43   13.3   26.6   8.04  .0725    117    1    100.0    5 
27/05/16   3:20   12.5   12.6   12.5    85   10.0   4.0   NNE   0.33   7.0    NE   12.3   12.4   12.2  1014.6  0.00  0.00   0.020   0.000   26.8    43   13.2   26.5   8.04  .0725    118    1    100.0    5 
27/05/16   3:25   12.4   12.5   12.4    85   10.0   3.0    NE   0.25   6.0   NNE   12.4   12.4   12.4  1014.6  0.00  0.00   0.020   0.000   26.8    43   13.2   26.5   8.04  .0725    117    1    100.0    5 
27/05/16   3:30   12.4   12.4   12.4    85    9.9   5.0    NE   0.42  10.0    NE   11.8   12.3   11.8  1014.6  0.00  0.00   0.021   0.000   26.8    43   13.2   26.4   8.05  .0725    117    1    100.0    5 
27/05/16   3:35   12.3   12.4   12.3    85    9.9   5.0    NE   0.42   9.0    NE   11.7   12.3   11.7  1014.5  0.00  0.00   0.021   0.000   26.8    43   13.2   26.4   8.05  .0725    116    1    100.0    5 
27/05/16   3:40   12.3   12.3   12.3    85    9.8   5.0   NNE   0.42   9.0   NNE   11.7   12.2   11.6  1014.5  0.00  0.00   0.021   0.000   26.7    43   13.1   26.4   8.05  .0725    116    1    100.0    5 
27/05/16   3:45   12.3   12.3   12.3    86   10.0   4.0   NNE   0.33  11.0     N   12.0   12.2   11.9  1014.6  0.00  0.00   0.021   0.000   26.7    43   13.1   26.4   8.05  .0725    115    1    100.0    5 
27/05/16   3:50   12.2   12.3   12.2    85    9.8   5.0   NNE   0.42   9.0   NNE   11.6   12.2   11.6  1014.5  0.00  0.00   0.021   0.000   26.7    43   13.1   26.3   8.05  .0725    115    1    100.0    5 
27/05/16   3:55   12.2   12.2   12.2    85    9.8   5.0   NNE   0.42   9.0   NNE   11.6   12.2   11.6  1014.4  0.00  0.00   0.021   0.000   26.7    43   13.1   26.3   8.05  .0725    115    1    100.0    5 
27/05/16   4:00   12.2   12.2   12.2    86    9.9   6.0   NNE   0.50  10.0   NNE   11.3   12.2   11.3  1014.3  0.00  0.00   0.021   0.000   26.6    43   13.0   26.3   8.05  .0725    117    1    100.0    5 
27/05/16   4:05   12.2   12.2   12.2    85    9.8   5.0   NNE   0.42  10.0   NNE   11.6   12.2   11.6  1014.4  0.00  0.00   0.021   0.000   26.6    43   13.0   26.3   8.05  .0726    116    1    100.0    5 
27/05/16   4:10   12.2   12.2   12.2    86    9.9   4.0     N   0.33   7.0     N   11.9   12.1   11.8  1014.5  0.00  0.00   0.021   0.000   26.6    43   13.0   26.2   8.05  .0726    115    1    100.0    5 
27/05/16   4:15   12.1   12.2   12.1    86    9.8   4.0     N   0.33   8.0   NNE   11.8   12.1   11.8  1014.5  0.00  0.00   0.022   0.000   26.6    43   13.0   26.2   8.05  .0726    116    1    100.0    5 
27/05/16   4:20   12.1   12.2   12.1    86    9.8   6.0   NNE   0.50   9.0     N   11.2   12.1   11.2  1014.4  0.00  0.00   0.022   0.000   26.5    43   12.9   26.2   8.05  .0726    116    1    100.0    5 
27/05/16   4:25   12.1   12.1   12.1    85    9.6   6.0   NNE   0.50  10.0   NNE   11.1   12.0   11.1  1014.4  0.00  0.00   0.022   0.000   26.5    43   12.9   26.2   8.05  .0726    118    1    100.0    5 
27/05/16   4:30   12.0   12.1   12.0    85    9.6   8.0   NNE   0.67  12.0     N   10.4   11.9   10.4  1014.4  0.00  0.00   0.022   0.000   26.4    43   12.9   26.1   8.05  .0726    117    1    100.0    5 
27/05/16   4:35   12.0   12.0   12.0    85    9.6   9.0   NNE   0.75  15.0   NNE   10.1   11.9   10.0  1014.4  0.00  0.00   0.022   0.000   26.4    43   12.8   26.1   8.05  .0726    117    1    100.0    5 
27/05/16   4:40   11.9   12.0   11.9    85    9.5   9.0   NNE   0.75  14.0   NNE   10.0   11.9    9.9  1014.3  0.00  0.00   0.022   0.000   26.4    43   12.8   26.1   8.05  .0726    117    1    100.0    5 
27/05/16   4:45   11.9   11.9   11.9    85    9.5   7.0   NNE   0.58  11.0    NE   10.8   11.9   10.7  1014.4  0.00  0.00   0.022   0.000   26.4    43   12.8   26.1   8.05  .0726    117    1    100.0    5 
27/05/16   4:50   11.9   11.9   11.9    85    9.4   7.0   NNE   0.58  13.0    NE   10.7   11.8   10.7  1014.4  0.00  0.00   0.022   0.000   26.3    43   12.8   26.0   8.05  .0726    115    1    100.0    5 
27/05/16   4:55   11.9   11.9   11.9    85    9.4   7.0   NNE   0.58  13.0   NNE   10.7   11.8   10.7  1014.4  0.00  0.00   0.022   0.000   26.3    43   12.8   26.0   8.05  .0726    116    1    100.0    5 
27/05/16   5:00   11.8   11.9   11.8    85    9.4   9.0   NNE   0.75  14.0    NE    9.9   11.8    9.8  1014.4  0.00  0.00   0.023   0.000   26.3    43   12.8   26.0   8.05  .0726    115    1    100.0    5 
27/05/16   5:05   11.8   11.8   11.8    85    9.4   6.0   NNE   0.50  13.0    NE   10.9   11.8   10.8  1014.5  0.00  0.00   0.023   0.000   26.3    43   12.7   26.0   8.05  .0727    115    1    100.0    5 
27/05/16   5:10   11.8   11.8   11.8    85    9.4   4.0   NNE   0.33  10.0   NNE   11.5   11.8   11.4  1014.6  0.00  0.00   0.023   0.000   26.3    43   12.7   26.0   8.05  .0727    116    1    100.0    5 
27/05/16   5:15   11.9   11.9   11.8    85    9.4   7.0   NNE   0.58  10.0     N   10.7   11.8   10.7  1014.6  0.00  0.00   0.022   0.000   26.3    43   12.7   26.0   8.05  .0727    116    1    100.0    5 
27/05/16   5:20   11.9   11.9   11.8    85    9.4   7.0   NNE   0.58  12.0   NNE   10.7   11.8   10.7  1014.4  0.00  0.00   0.022   0.000   26.2    43   12.7   25.9   8.05  .0727    116    1    100.0    5 
27/05/16   5:25   11.9   11.9   11.9    85    9.4   6.0   NNE   0.50  14.0    NE   10.9   11.8   10.9  1014.6  0.00  0.00   0.022   0.000   26.2    43   12.7   25.9   8.05  .0727    118    1    100.0    5 
27/05/16   5:30   11.9   11.9   11.9    85    9.5   2.0   NNE   0.17   9.0   NNE   11.9   11.9   11.9  1014.8  0.00  0.00   0.022   0.000   26.2    43   12.6   25.9   8.05  .0727    116    1    100.0    5 
27/05/16   5:35   11.9   11.9   11.9    85    9.5   1.0   NNE   0.08   4.0    NE   11.9   11.9   11.9  1014.9  0.00  0.00   0.022   0.000   26.1    43   12.6   25.8   8.05  .0727    117    1    100.0    5 
27/05/16   5:40   12.0   12.0   11.9    85    9.6   3.0    NE   0.25   8.0    NE   12.0   11.9   11.9  1014.8  0.00  0.00   0.022   0.000   26.1    43   12.6   25.8   8.05  .0727    117    1    100.0    5 
27/05/16   5:45   12.1   12.1   12.0    85    9.6   4.0    NE   0.33   7.0    NE   11.7   12.0   11.7  1014.7  0.00  0.00   0.022   0.000   26.1    43   12.6   25.8   8.05  .0727    116    1    100.0    5 
27/05/16   5:50   12.1   12.1   12.1    85    9.6   4.0    NE   0.33   9.0    NE   11.7   12.0   11.7  1014.8  0.00  0.00   0.022   0.000   26.1    43   12.5   25.8   8.05  .0727    117    1    100.0    5 
27/05/16   5:55   12.1   12.1   12.1    84    9.4   6.0   NNE   0.50  12.0    NE   11.1   12.0   11.1  1014.7  0.00  0.00   0.022   0.000   26.0    43   12.5   25.7   8.05  .0728    116    1    100.0    5 
27/05/16   6:00   12.1   12.1   12.1    84    9.4   7.0   NNE   0.58  13.0    NE   10.9   12.0   10.8  1014.7  0.00  0.00   0.022   0.000   26.0    43   12.5   25.7   8.05  .0728    117    1    100.0    5 
27/05/16   6:05   12.1   12.1   12.1    85    9.6   6.0   NNE   0.50  11.0    NE   11.1   12.0   11.1  1014.7  0.00  0.00   0.022   0.000   26.0    43   12.5   25.7   8.05  .0728    117    1    100.0    5 
27/05/16   6:10   12.1   12.1   12.1    85    9.6   5.0   NNE   0.42  10.0    NE   11.4   12.0   11.3  1014.7  0.00  0.00   0.022   0.000   25.9    43   12.4   25.7   8.05  .0728    116    1    100.0    5 
27/05/16   6:15   12.1   12.1   12.1    85    9.6   6.0    NE   0.50  11.0    NE   11.1   12.0   11.1  1014.7  0.00  0.00   0.022   0.000   25.9    43   12.4   25.6   8.05  .0728    115    1    100.0    5 
27/05/16   6:20   12.1   12.1   12.1    85    9.6   5.0    NE   0.42  11.0    NE   11.4   12.0   11.3  1014.8  0.00  0.00   0.022   0.000   25.9    43   12.4   25.6   8.05  .0728    116    1    100.0    5 
27/05/16   6:25   12.1   12.1   12.1    85    9.6   5.0    NE   0.42  10.0    NE   11.4   12.0   11.3  1014.8  0.00  0.00   0.022   0.000   25.9    43   12.4   25.6   8.05  .0728    117    1    100.0    5 
27/05/16   6:30   12.1   12.1   12.1    85    9.7   6.0    NE   0.50  11.0    NE   11.2   12.1   11.2  1014.8  0.00  0.00   0.022   0.000   25.8    43   12.3   25.5   8.05  .0728    117    1    100.0    5 
27/05/16   6:35   12.1   12.1   12.1    85    9.7   5.0   NNE   0.42   9.0     N   11.5   12.1   11.4  1014.8  0.00  0.00   0.022   0.000   25.8    43   12.3   25.5   8.05  .0728    117    1    100.0    5 
27/05/16   6:40   12.1   12.1   12.1    85    9.7   6.0   NNE   0.50  10.0    NE   11.2   12.1   11.2  1014.9  0.00  0.00   0.022   0.000   25.8    43   12.2   25.4   8.05  .0728    115    1    100.0    5 
27/05/16   6:45   12.1   12.1   12.1    85    9.7   7.0   NNE   0.58  11.0    NE   11.0   12.1   10.9  1014.9  0.00  0.00   0.022   0.000   25.8    43   12.2   25.4   8.05  .0728    116    1    100.0    5 
27/05/16   6:50   12.2   12.2   12.1    85    9.7   5.0   NNE   0.42  10.0   NNE   11.6   12.1   11.5  1014.9  0.00  0.00   0.021   0.000   25.7    43   12.2   25.4   8.05  .0729    116    1    100.0    5 
27/05/16   6:55   12.2   12.2   12.2    85    9.8   4.0   NNE   0.33   9.0    NE   11.9   12.2   11.9  1014.9  0.00  0.00   0.021   0.000   25.7    43   12.2   25.4   8.05  .0729    116    1    100.0    5 
27/05/16   7:00   12.3   12.3   12.2    85    9.8   5.0   NNE   0.42   9.0    NE   11.7   12.2   11.6  1014.9  0.00  0.00   0.021   0.000   25.7    43   12.2   25.4   8.05  .0729    116    1    100.0    5 
27/05/16   7:05   12.3   12.3   12.3    85    9.8   6.0   NNE   0.50   9.0   NNE   11.4   12.2   11.3  1014.8  0.00  0.00   0.021   0.000   25.7    43   12.1   25.3   8.05  .0729    117    1    100.0    5 
27/05/16   7:10   12.3   12.3   12.3    85    9.9   6.0   NNE   0.50   9.0    NE   11.4   12.3   11.4  1014.8  0.00  0.00   0.021   0.000   25.7    43   12.1   25.3   8.05  .0729    117    1    100.0    5 
27/05/16   7:15   12.3   12.3   12.3    84    9.7   7.0   NNE   0.58  12.0   NNE   11.2   12.3   11.2  1014.9  0.00  0.00   0.021   0.000   25.7    43   12.1   25.3   8.05  .0729    116    1    100.0    5 
27/05/16   7:20   12.4   12.4   12.3    84    9.8   7.0   NNE   0.58  12.0    NE   11.3   12.3   11.3  1014.9  0.00  0.00   0.021   0.000   25.6    43   12.1   25.3   8.05  .0729    117    1    100.0    5 
27/05/16   7:25   12.5   12.5   12.4    84    9.9   8.0   NNE   0.67  13.0    NE   11.1   12.4   11.0  1014.9  0.00  0.00   0.020   0.000   25.6    43   12.0   25.2   8.05  .0729    113    1     99.1    5 
27/05/16   7:30   12.6   12.6   12.5    84    9.9   6.0   NNE   0.50   9.0   NNE   11.7   12.5   11.7  1014.9  0.00  0.00   0.020   0.000   25.6    43   12.0   25.2   8.05  .0729    117    1    100.0    5 
27/05/16   7:35   12.7   12.7   12.6    84   10.1   6.0   NNE   0.50  10.0    NE   11.9   12.7   11.9  1014.9  0.00  0.00   0.019   0.000   25.6    43   12.0   25.2   8.05  .0729    116    1    100.0    5 
27/05/16   7:40   12.8   12.8   12.7    83   10.0   6.0   NNE   0.50  14.0    NE   12.0   12.7   11.9  1015.0  0.00  0.00   0.019   0.000   25.5    43   12.0   25.2   8.05  .0729    117    1    100.0    5 
27/05/16   7:45   12.8   12.8   12.8    83   10.0   7.0   NNE   0.58  14.0   ENE   11.8   12.7   11.7  1014.9  0.00  0.00   0.019   0.000   25.5    43   12.0   25.2   8.05  .0729    117    1    100.0    5 
27/05/16   7:50   13.0   13.0   12.8    83   10.2   8.0   NNE   0.67  12.0     N   11.7   12.9   11.6  1014.9  0.00  0.00   0.019   0.000   25.5    43   12.0   25.2   8.05  .0729    117    1    100.0    5 
27/05/16   7:55   13.1   13.1   13.0    83   10.3   6.0   NNE   0.50  11.0   NNE   12.4   13.0   12.3  1014.9  0.00  0.00   0.018   0.000   25.5    43   12.0   25.2   8.05  .0729    117    1    100.0    5 
27/05/16   8:00   13.2   13.2   13.1    83   10.4   7.0   NNE   0.58  12.0   NNE   12.3   13.1   12.2  1014.9  0.00  0.00   0.018   0.000   25.5    43   12.0   25.2   8.05  .0729    116    1    100.0    5 
27/05/16   8:05   13.4   13.4   13.2    83   10.6   7.0   NNE   0.58  11.0    NE   12.6   13.3   12.4  1015.0  0.00  0.00   0.017   0.000   25.4    43   11.9   25.1   8.05  .0729    117    1    100.0    5 
27/05/16   8:10   13.7   13.7   13.4    83   10.8   7.0   NNE   0.58  10.0    NE   12.8   13.6   12.7  1014.9  0.00  0.00   0.016   0.000   25.4    43   11.9   25.1   8.05  .0729    117    1    100.0    5 
27/05/16   8:15   13.9   13.9   13.7    82   10.9   7.0   NNE   0.58  13.0   NNE   13.1   13.8   13.0  1014.9  0.00  0.00   0.015   0.000   25.4    43   11.9   25.1   8.05  .0729    117    1    100.0    5 
27/05/16   8:20   14.1   14.1   13.9    81   10.8   8.0   NNE   0.67  14.0   NNE   12.9   13.9   12.8  1014.9  0.00  0.00   0.015   0.000   25.4    43   11.9   25.1   8.05  .0729    116    1    100.0    5 
27/05/16   8:25   14.2   14.2   14.1    81   11.0   9.0   NNE   0.75  14.0   NNE   12.6   14.1   12.5  1014.9  0.00  0.00   0.014   0.000   25.4    43   11.9   25.1   8.05  .0729    115    1    100.0    5 
27/05/16   8:30   14.3   14.3   14.2    81   11.1   8.0   NNE   0.67  13.0    NE   13.2   14.2   13.1  1014.9  0.00  0.00   0.014   0.000   25.5    43   12.0   25.2   8.05  .0729    117    1    100.0    5 
27/05/16   8:35   14.4   14.4   14.3    80   11.0   8.0   NNE   0.67  14.0   NNE   13.4   14.3   13.3  1014.9  0.00  0.00   0.014   0.000   25.5    44   12.3   25.2   8.19  .0729    117    1    100.0    5 
27/05/16   8:40   14.7   14.7   14.4    80   11.3   9.0   NNE   0.75  14.0   NNE   13.2   14.6   13.1  1014.8  0.00  0.00   0.013   0.000   25.5    44   12.3   25.2   8.19  .0729    118    1    100.0    5 
27/05/16   8:45   14.9   14.9   14.7    79   11.3   7.0   NNE   0.58  12.0   NNE   14.4   14.8   14.2  1014.8  0.00  0.00   0.012   0.000   25.6    44   12.4   25.3   8.19  .0729    115    1    100.0    5 
27/05/16   8:50   15.1   15.1   14.9    78   11.2   8.0   NNE   0.67  13.0    NE   14.1   14.9   13.9  1014.8  0.00  0.00   0.011   0.000   25.6    44   12.4   25.3   8.19  .0729    116    1    100.0    5 
27/05/16   8:55   15.3   15.3   15.1    78   11.5   8.0   NNE   0.67  15.0   NNE   14.4   15.1   14.2  1014.8  0.00  0.00   0.011   0.000   25.6    44   12.4   25.3   8.19  .0729    116    1    100.0    5 
27/05/16   9:00   15.5   15.5   15.3    77   11.5   7.0    NE   0.58  12.0    NE   15.1   15.3   14.9  1014.8  0.00  0.00   0.010   0.000   25.6    44   12.4   25.3   8.19  .0729    117    1    100.0    5 
27/05/16   9:05   15.7   15.7   15.5    77   11.6   7.0   NNE   0.58  13.0   NNE   15.2   15.5   15.1  1014.8  0.00  0.00   0.009   0.000   25.7    44   12.6   25.4   8.18  .0728    117    1    100.0    5 
27/05/16   9:10   15.9   15.9   15.7    77   11.9   8.0   NNE   0.67  16.0   NNE   15.1   15.8   15.0  1014.9  0.00  0.00   0.008   0.000   25.7    44   12.6   25.4   8.18  .0728    116    1    100.0    5 
27/05/16   9:15   16.1   16.1   15.9    76   11.8   9.0   NNE   0.75  17.0    NE   14.9   15.9   14.8  1014.9  0.00  0.00   0.008   0.000   25.7    44   12.6   25.4   8.18  .0728    116    1    100.0    5 
27/05/16   9:20   16.2   16.2   16.1    76   12.0   8.0   NNE   0.67  12.0    NE   15.5   16.1   15.4  1014.9  0.00  0.00   0.007   0.000   25.8    44   12.6   25.5   8.18  .0728    117    1    100.0    5 
27/05/16   9:25   16.4   16.4   16.2    75   11.9   7.0   NNE   0.58  13.0   ENE   16.2   16.3   16.1  1014.8  0.00  0.00   0.007   0.000   25.8    44   12.6   25.5   8.18  .0728    116    1    100.0    5 
27/05/16   9:30   16.6   16.6   16.4    75   12.2   7.0   NNE   0.58  12.0    NE   16.4   16.5   16.3  1014.9  0.00  0.00   0.006   0.000   25.8    44   12.7   25.6   8.18  .0728    117    1    100.0    5 
27/05/16   9:35   16.8   16.8   16.6    74   12.2   9.0   NNE   0.75  14.0    NE   15.8   16.7   15.7  1014.9  0.00  0.00   0.005   0.000   25.8    44   12.7   25.6   8.18  .0728    115    1    100.0    5 
27/05/16   9:40   17.0   17.0   16.8    74   12.3   7.0   NNE   0.58  12.0   NNE   16.9   16.9   16.8  1015.0  0.00  0.00   0.005   0.000   25.9    44   12.7   25.7   8.18  .0728    118    1    100.0    5 
27/05/16   9:45   17.1   17.1   17.0    73   12.2   7.0   NNE   0.58  14.0    NE   17.1   17.0   16.9  1015.0  0.00  0.00   0.004   0.000   25.9    44   12.7   25.7   8.18  .0728    117    1    100.0    5 
27/05/16   9:50   17.2   17.2   17.1    72   12.1   8.0    NE   0.67  15.0    NE   16.7   17.1   16.6  1014.9  0.00  0.00   0.004   0.000   25.9    44   12.8   25.7   8.18  .0728    116    1    100.0    5 
27/05/16   9:55   17.3   17.3   17.2    73   12.4   7.0    NE   0.58  13.0    NE   17.3   17.3   17.2  1015.0  0.00  0.00   0.003   0.000   26.0    43   12.5   25.7   8.05  .0728    116    1    100.0    5 
27/05/16  10:00   17.4   17.4   17.3    73   12.6   8.0   NNE   0.67  14.0   NNE   16.9   17.4   16.9  1015.0  0.00  0.00   0.003   0.000   26.0    43   12.5   25.7   8.05  .0728    115    1    100.0    5 
27/05/16  10:05   17.6   17.6   17.4    73   12.7   8.0    NE   0.67  14.0    NE   17.1   17.5   17.1  1015.0  0.00  0.00   0.003   0.000   26.0    43   12.5   25.7   8.05  .0728    116    1    100.0    5 
27/05/16  10:10   17.6   17.6   17.6    72   12.5   9.0   NNE   0.75  16.0    NE   16.7   17.6   16.6  1015.0  0.00  0.00   0.003   0.000   26.1    43   12.5   25.8   8.05  .0728    117    1    100.0    5 
27/05/16  10:15   17.7   17.7   17.6    72   12.6   8.0    NE   0.67  15.0    NE   17.3   17.7   17.2  1015.0  0.00  0.00   0.002   0.000   26.1    44   12.9   25.9   8.17  .0727    117    1    100.0    5 
27/05/16  10:20   17.8   17.8   17.7    72   12.7   8.0    NE   0.67  14.0   NNE   17.4   17.8   17.3  1015.0  0.00  0.00   0.002   0.000   26.2    44   13.0   25.9   8.17  .0727    116    1    100.0    5 
27/05/16  10:25   17.9   17.9   17.8    72   12.8  10.0   NNE   0.83  17.0    NE   16.6   17.9   16.6  1014.9  0.00  0.00   0.002   0.000   26.2    43   12.6   25.9   8.05  .0727    117    1    100.0    5 
27/05/16  10:30   18.0   18.0   17.9    71   12.7   9.0   NNE   0.75  17.0    NE   17.2   17.9   17.1  1015.1  0.00  0.00   0.001   0.000   26.2    43   12.7   25.9   8.05  .0727    116    1    100.0    5 
27/05/16  10:35   18.3   18.3   18.0    72   13.2   9.0   NNE   0.75  13.0   NNE   17.6   18.4   17.6  1015.0  0.00  0.00   0.000   0.000   26.2    43   12.7   25.9   8.05  .0727    117    1    100.0    5 
27/05/16  10:40   18.6   18.6   18.3    70   13.0   9.0   NNE   0.75  15.0    NE   17.9   18.7   17.9  1015.0  0.00  0.00   0.000   0.001   26.3    43   12.7   26.0   8.05  .0727    116    1    100.0    5 
27/05/16  10:45   18.8   18.8   18.6    70   13.2   8.0    NE   0.67  15.0   NNE   18.4   18.9   18.6  1015.0  0.00  0.00   0.000   0.002   26.3    43   12.8   26.0   8.05  .0727    118    1    100.0    5 
27/05/16  10:50   18.9   18.9   18.8    69   13.1   8.0   NNE   0.67  13.0   NNE   18.6   19.0   18.7  1014.9  0.00  0.00   0.000   0.002   26.3    43   12.8   26.0   8.05  .0727    117    1    100.0    5 
27/05/16  10:55   19.2   19.2   19.0    69   13.3   8.0   NNE   0.67  14.0   NNE   18.8   19.3   18.9  1015.0  0.00  0.00   0.000   0.003   26.3    43   12.8   26.0   8.05  .0727    117    1    100.0    5 
27/05/16  11:00   19.4   19.4   19.2    69   13.6   7.0   NNE   0.58  12.0   NNE   19.4   19.6   19.6  1015.1  0.00  0.00   0.000   0.004   26.4    43   12.8   26.1   8.05  .0727    117    1    100.0    5 
27/05/16  11:05   19.6   19.6   19.4    67   13.3   8.0   NNE   0.67  16.0    NE   19.2   19.7   19.3  1015.0  0.00  0.00   0.000   0.004   26.4    43   12.8   26.1   8.05  .0727    117    1    100.0    5 
27/05/16  11:10   19.7   19.7   19.6    67   13.4   6.0   NNE   0.50  11.0   NNE   19.7   19.9   19.9  1015.1  0.00  0.00   0.000   0.005   26.4    43   12.9   26.1   8.05  .0726    117    1    100.0    5 
27/05/16  11:15   19.9   19.9   19.7    66   13.4   7.0    NE   0.58  12.0    NE   19.9   20.1   20.1  1015.0  0.00  0.00   0.000   0.006   26.4    43   12.9   26.1   8.05  .0726    117    1    100.0    5 
27/05/16  11:20   20.2   20.2   20.0    65   13.4   8.0    NE   0.67  12.0   NNE   19.8   20.3   19.9  1015.0  0.00  0.00   0.000   0.007   26.5    43   12.9   26.2   8.05  .0726    117    1    100.0    5 
27/05/16  11:25   20.6   20.6   20.2    66   14.0   4.0    NE   0.33   9.0     E   20.6   20.6   20.6  1014.9  0.00  0.00   0.000   0.008   26.5    43   12.9   26.2   8.05  .0726    117    1    100.0    5 
27/05/16  11:30   20.9   20.9   20.6    64   13.9   5.0    NE   0.42  12.0    NE   20.9   20.8   20.8  1014.9  0.00  0.00   0.000   0.009   26.6    43   13.0   26.2   8.05  .0726    114    1    100.0    5 
27/05/16  11:35   21.1   21.1   20.9    63   13.8   7.0   NNE   0.58  11.0   NNE   21.1   20.8   20.8  1015.0  0.00  0.00   0.000   0.010   26.6    43   13.0   26.3   8.05  .0726    117    1    100.0    5 
27/05/16  11:40   21.4   21.4   21.1    63   14.1   4.0   ENE   0.33   9.0   ENE   21.4   21.2   21.2  1015.0  0.00  0.00   0.000   0.011   26.6    43   13.0   26.3   8.05  .0726    117    1    100.0    5 
27/05/16  11:45   21.6   21.6   21.4    63   14.2   5.0   NNE   0.42  11.0    NE   21.6   21.4   21.4  1014.9  0.00  0.00   0.000   0.011   26.7    43   13.1   26.3   8.05  .0726    115    1    100.0    5 
27/05/16  11:50   21.8   21.8   21.6    61   13.9   5.0   ENE   0.42  10.0   ESE   21.8   21.6   21.6  1015.0  0.00  0.00   0.000   0.012   26.7    43   13.1   26.4   8.05  .0726    117    1    100.0    5 
27/05/16  11:55   21.9   21.9   21.8    60   13.8   6.0    NE   0.50  11.0   ENE   21.9   21.8   21.8  1015.0  0.00  0.00   0.000   0.013   26.8    43   13.2   26.4   8.05  .0725    116    1    100.0    5 
27/05/16  12:00   22.3   22.3   21.9    61   14.4   5.0     E   0.42  11.0    NE   22.3   22.4   22.4  1015.0  0.00  0.00   0.000   0.014   26.8    43   13.2   26.4   8.05  .0725    117    1    100.0    5 
27/05/16  12:05   22.8   22.8   22.3    63   15.4   7.0   ESE   0.58  11.0   ESE   22.8   23.1   23.1  1015.0  0.00  0.00   0.000   0.015   26.8    43   13.2   26.5   8.04  .0725    115    1    100.0    5 
27/05/16  12:10   22.9   22.9   22.8    62   15.3   8.0   ESE   0.67  11.0   ESE   22.7   23.3   23.0  1015.0  0.00  0.00   0.000   0.016   26.9    44   13.6   26.6   8.15  .0725    116    1    100.0    5 
27/05/16  12:15   22.9   23.0   22.9    63   15.5   7.0   ESE   0.58   9.0   ESE   22.9   23.3   23.3  1014.9  0.00  0.00   0.000   0.016   26.9    44   13.7   26.7   8.15  .0725    117    1    100.0    5 
27/05/16  12:20   23.0   23.0   22.9    64   15.8   6.0   ESE   0.50   8.0    SE   23.0   23.4   23.4  1014.9  0.00  0.00   0.000   0.016   27.0    44   13.7   26.7   8.15  .0724    116    1    100.0    5 
27/05/16  12:25   23.1   23.2   23.0    63   15.7   7.0   ESE   0.58   9.0    SE   23.1   23.6   23.6  1014.9  0.00  0.00   0.000   0.017   27.1    44   13.8   26.8   8.15  .0724    116    1    100.0    5 
27/05/16  12:30   23.2   23.2   23.1    62   15.5   7.0   ESE   0.58  10.0   ESE   23.2   23.7   23.7  1014.9  0.00  0.00   0.000   0.017   27.1    44   13.8   26.8   8.15  .0724    117    1    100.0    5 
27/05/16  12:35   23.3   23.3   23.2    61   15.3   7.0   ESE   0.58  11.0   ESE   23.3   23.7   23.7  1014.9  0.00  0.00   0.000   0.017   27.2    45   14.2   26.9   8.33  .0724    114    1    100.0    5 
27/05/16  12:40   23.4   23.4   23.3    62   15.7   6.0   ESE   0.50   9.0    SE   23.4   23.9   23.9  1014.8  0.00  0.00   0.000   0.018   27.2    45   14.3   27.0   8.33  .0723    117    1    100.0    5 
27/05/16  12:45   23.6   23.6   23.4    60   15.3   6.0   ESE   0.50   8.0   ESE   23.6   24.0   24.0  1014.9  0.00  0.00   0.000   0.018   27.3    45   14.3   27.1   8.33  .0723    117    1    100.0    5 
27/05/16  12:50   23.7   23.7   23.6    61   15.8   5.0   ESE   0.42   7.0   ESE   23.7   24.2   24.2  1014.8  0.00  0.00   0.000   0.019   27.3    44   14.0   27.1   8.15  .0723    118    1    100.0    5 
27/05/16  12:55   23.9   23.9   23.7    61   15.9   6.0   ESE   0.50   8.0   ESE   23.9   24.4   24.4  1014.7  0.00  0.00   0.000   0.019   27.4    45   14.4   27.2   8.32  .0723    117    1    100.0    5 
27/05/16  13:00   23.9   23.9   23.9    62   16.2   6.0   ESE   0.50   9.0   ESE   23.9   24.5   24.5  1014.7  0.00  0.00   0.000   0.019   27.4    45   14.4   27.2   8.32  .0723    117    1    100.0    5 
27/05/16  13:05   24.1   24.1   23.9    62   16.3   7.0   ESE   0.58   9.0   ESE   24.1   24.6   24.6  1014.7  0.00  0.00   0.000   0.020   27.4    45   14.5   27.3   8.32  .0723    117    1    100.0    5 
27/05/16  13:10   24.1   24.1   24.1    62   16.4   6.0    SE   0.50   8.0   ESE   24.1   24.7   24.7  1014.8  0.00  0.00   0.000   0.020   27.5    45   14.5   27.4   8.32  .0722    117    1    100.0    5 
27/05/16  13:15   23.9   24.1   23.9    62   16.2   5.0    SE   0.42   7.0    SE   23.9   24.5   24.5  1014.7  0.00  0.00   0.000   0.019   27.6    45   14.6   27.4   8.32  .0722    117    1    100.0    5 
27/05/16  13:20   23.9   23.9   23.9    63   16.5   4.0   ESE   0.33   6.0    SE   23.9   24.6   24.6  1014.7  0.00  0.00   0.000   0.019   27.6    45   14.6   27.5   8.32  .0722    116    1    100.0    5 
27/05/16  13:25   24.1   24.1   23.9    62   16.4   4.0   ESE   0.33   6.0   ESE   24.1   24.7   24.7  1014.7  0.00  0.00   0.000   0.020   27.7    45   14.7   27.6   8.31  .0722    117    1    100.0    5 
27/05/16  13:30   24.3   24.3   24.1    62   16.5   5.0   ESE   0.42   7.0    SE   24.3   24.8   24.8  1014.7  0.00  0.00   0.000   0.021   27.7    45   14.7   27.7   8.31  .0722    117    1    100.0    5 
27/05/16  13:35   24.2   24.2   24.2    60   16.0   5.0    SE   0.42   6.0    SE   24.2   24.7   24.7  1014.7  0.00  0.00   0.000   0.020   27.8    45   14.8   27.7   8.31  .0722    117    1    100.0    5 
27/05/16  13:40   24.2   24.3   24.2    60   16.0   6.0    SE   0.50   7.0    SE   24.2   24.7   24.7  1014.7  0.00  0.00   0.000   0.020   27.8    45   14.8   27.8   8.31  .0721    116    1    100.0    5 
27/05/16  13:45   24.1   24.2   24.1    60   15.9   5.0    SE   0.42   6.0    SE   24.1   24.6   24.6  1014.7  0.00  0.00   0.000   0.020   27.9    45   14.9   27.9   8.31  .0721    116    1    100.0    5 
27/05/16  13:50   24.0   24.1   24.0    60   15.8   6.0    SE   0.50   7.0    SE   24.0   24.5   24.5  1014.7  0.00  0.00   0.000   0.020   27.9    45   14.9   28.0   8.30  .0721    116    1    100.0    5 
27/05/16  13:55   23.9   24.0   23.9    61   16.0   6.0    SE   0.50   8.0    SE   23.9   24.5   24.5  1014.7  0.00  0.00   0.000   0.019   28.0    45   15.0   28.1   8.30  .0721    118    1    100.0    5 
27/05/16  14:00   23.4   23.9   23.4    61   15.5   6.0    SE   0.50   8.0    SE   23.4   23.9   23.9  1014.8  0.00  0.00   0.000   0.018   28.0    45   15.0   28.1   8.30  .0721    115    1    100.0    5 
27/05/16  14:05   22.8   23.4   22.8    62   15.2   7.0    SE   0.58  11.0    SE   22.8   23.2   23.2  1014.8  0.00  0.00   0.000   0.016   28.1    45   15.1   28.3   8.30  .0721    116    1    100.0    5 
27/05/16  14:10   22.4   22.8   22.4    63   15.0   8.0    SE   0.67  10.0    SE   22.1   22.6   22.3  1014.8  0.00  0.00   0.000   0.014   28.1    45   15.1   28.3   8.30  .0721    116    1    100.0    5 
27/05/16  14:15   22.4   22.4   22.3    64   15.2   8.0    SE   0.67  10.0    SE   22.1   22.6   22.3  1014.9  0.00  0.00   0.000   0.014   28.2    45   15.1   28.3   8.30  .0720    117    1    100.0    5 
27/05/16  14:20   22.4   22.4   22.3    64   15.2   8.0    SE   0.67  10.0    SE   22.1   22.6   22.3  1014.9  0.00  0.00   0.000   0.014   28.1    45   15.1   28.3   8.30  .0721    117    1    100.0    5 
27/05/16  14:25   22.3   22.4   22.3    64   15.2   8.0    SE   0.67  10.0    SE   22.1   22.5   22.2  1014.9  0.00  0.00   0.000   0.014   28.1    45   15.1   28.3   8.30  .0721    117    1    100.0    5 
27/05/16  14:30   21.9   22.3   21.9    64   14.8   7.0    SE   0.58  10.0    SE   21.9   21.9   21.9  1015.0  0.00  0.00   0.000   0.012   28.1    45   15.1   28.3   8.30  .0721    116    1    100.0    5 
27/05/16  14:35   21.6   21.9   21.6    66   15.0   7.0    SE   0.58   9.0    SE   21.6   21.6   21.6  1015.0  0.00  0.00   0.000   0.011   28.1    45   15.0   28.2   8.30  .0721    117    1    100.0    5 
27/05/16  14:40   21.7   21.7   21.6    66   15.1   6.0    SE   0.50   8.0    SE   21.7   21.7   21.7  1014.9  0.00  0.00   0.000   0.012   28.0    45   15.0   28.1   8.30  .0721    117    1    100.0    5 
27/05/16  14:45   21.7   21.7   21.7    65   14.8   7.0    SE   0.58   9.0    SE   21.7   21.6   21.6  1014.9  0.00  0.00   0.000   0.012   28.0    45   15.0   28.1   8.30  .0721    116    1    100.0    5 
27/05/16  14:50   21.4   21.7   21.4    66   14.8   7.0    SE   0.58  10.0    SE   21.4   21.3   21.3  1015.0  0.00  0.00   0.000   0.011   28.0    45   15.0   28.1   8.30  .0721    117    1    100.0    5 
27/05/16  14:55   21.2   21.3   21.2    68   15.1   6.0    SE   0.50   8.0    SE   21.2   21.2   21.2  1015.0  0.00  0.00   0.000   0.010   27.9    45   14.9   28.0   8.30  .0721    118    1    100.0    5 
27/05/16  15:00   21.2   21.3   21.2    66   14.6   6.0    SE   0.50   9.0    SE   21.2   21.1   21.1  1014.9  0.00  0.00   0.000   0.010   27.9    45   14.9   27.9   8.31  .0721    116    1    100.0    5 
27/05/16  15:05   20.8   21.2   20.8    67   14.4   5.0    SE   0.42   8.0    SE   20.8   20.8   20.8  1015.0  0.00  0.00   0.000   0.008   27.8    45   14.8   27.8   8.31  .0722    117    1    100.0    5 
27/05/16  15:10   20.6   20.8   20.6    69   14.7   5.0   SSE   0.42   6.0    SE   20.6   20.8   20.8  1015.0  0.00  0.00   0.000   0.008   27.8    45   14.8   27.7   8.31  .0722    115    1    100.0    5 
27/05/16  15:15   19.4   20.6   19.4    69   13.6   5.0   SSE   0.42   6.0   SSE   19.4   19.6   19.6  1015.0  0.00  0.00   0.000   0.004   27.8    45   14.8   27.7   8.31  .0722    113    1     99.1    5 
27/05/16  15:20   18.6   19.3   18.6    74   13.8   5.0   SSE   0.42   7.0   SSE   18.6   18.7   18.7  1015.0  0.00  0.00   0.000   0.001   27.7    45   14.7   27.7   8.31  .0722    117    1    100.0    5 
27/05/16  15:25   18.1   18.6   18.1    75   13.6   5.0   SSE   0.42   8.0     S   18.1   18.2   18.2  1015.0  0.00  0.00   0.001   0.000   27.7    44   14.3   27.5   8.15  .0722    117    1    100.0    5 
27/05/16  15:30   17.6   18.1   17.6    76   13.3   5.0   SSE   0.42   6.0   SSE   17.6   17.7   17.7  1015.0  0.00  0.00   0.003   0.000   27.6    44   14.3   27.4   8.15  .0723    116    1    100.0    5 
27/05/16  15:35   17.8   17.8   17.6    77   13.7   4.0   SSE   0.33   5.0    SE   17.8   18.0   18.0  1015.0  0.00  0.00   0.002   0.000   27.6    45   14.6   27.4   8.32  .0722    117    1    100.0    5 
27/05/16  15:40   17.7   17.9   17.7    76   13.4   4.0     S   0.33   5.0     S   17.7   17.7   17.7  1014.9  0.00  0.00   0.002   0.000   27.5    45   14.5   27.4   8.32  .0723    116    1    100.0    5 
27/05/16  15:45   17.9   17.9   17.7    77   13.8   4.0   SSE   0.33   6.0    SE   17.9   18.1   18.1  1014.9  0.00  0.00   0.002   0.000   27.5    45   14.5   27.4   8.32  .0723    117    1    100.0    5 
27/05/16  15:50   17.9   17.9   17.8    77   13.9   4.0     S   0.33   7.0     S   17.9   18.1   18.1  1014.9  0.00  0.00   0.001   0.000   27.4    45   14.5   27.3   8.32  .0723    115    1    100.0    5 
27/05/16  15:55   17.5   17.9   17.5    76   13.2   5.0     S   0.42   7.0     S   17.5   17.6   17.6  1014.9  0.00  0.00   0.003   0.000   27.4    45   14.4   27.2   8.32  .0723    116    1    100.0    5 
27/05/16  16:00   17.1   17.5   17.1    77   13.0   4.0     S   0.33   6.0     S   17.1   17.1   17.1  1014.9  0.00  0.00   0.004   0.000   27.3    45   14.4   27.2   8.33  .0723    118    1    100.0    5 
27/05/16  16:05   16.7   17.1   16.7    78   12.9   4.0     S   0.33   6.0   SSW   16.7   16.7   16.7  1014.9  0.00  0.00   0.006   0.000   27.3    45   14.4   27.2   8.33  .0723    116    1    100.0    5 
27/05/16  16:10   16.5   16.7   16.5    79   12.8   4.0   SSW   0.33   5.0   SSW   16.5   16.6   16.6  1014.8  0.00  0.00   0.006   0.000   27.3    45   14.4   27.2   8.33  .0723    117    1    100.0    5 
27/05/16  16:15   16.3   16.5   16.3    79   12.7   4.0   SSW   0.33   6.0    SW   16.3   16.3   16.3  1014.7  0.00  0.00   0.007   0.000   27.3    45   14.4   27.2   8.33  .0723    115    1    100.0    5 
27/05/16  16:20   16.3   16.3   16.3    80   12.8   4.0   SSW   0.33   5.0     S   16.3   16.3   16.3  1014.8  0.00  0.00   0.007   0.000   27.3    46   14.7   27.2   8.45  .0723    116    1    100.0    5 
27/05/16  16:25   16.1   16.3   16.1    80   12.6   4.0    SW   0.33   5.0    SW   16.1   16.1   16.1  1014.7  0.00  0.00   0.008   0.000   27.3    46   14.7   27.2   8.45  .0723    117    1    100.0    5 
27/05/16  16:30   15.8   16.1   15.8    80   12.4   5.0   SSW   0.42   6.0   SSW   15.8   15.8   15.8  1014.6  0.00  0.00   0.009   0.000   27.4    46   14.7   27.3   8.45  .0722    116    1    100.0    5 
27/05/16  16:35   15.8   15.8   15.7    82   12.7   5.0   SSW   0.42   6.0    SW   15.8   15.8   15.8  1014.6  0.00  0.00   0.009   0.000   27.4    46   14.8   27.3   8.45  .0722    117    1    100.0    5 
27/05/16  16:40   15.6   15.8   15.6    82   12.5   4.0    SW   0.33   6.0    SW   15.6   15.6   15.6  1014.6  0.00  0.00   0.009   0.000   27.4    46   14.8   27.3   8.45  .0722    117    1    100.0    5 
27/05/16  16:45   15.6   15.6   15.6    83   12.7   4.0   WSW   0.33   6.0   WSW   15.6   15.6   15.6  1014.6  0.00  0.00   0.010   0.000   27.6    46   14.9   27.5   8.45  .0722    116    1    100.0    5 
27/05/16  16:50   15.7   15.7   15.5    83   12.8   4.0    SW   0.33   6.0    SW   15.7   15.7   15.7  1014.5  0.00  0.00   0.009   0.000   27.6    46   14.9   27.6   8.45  .0722    115    1    100.0    5 
27/05/16  16:55   15.4   15.6   15.4    83   12.6   5.0    SW   0.42   7.0    SW   15.4   15.4   15.4  1014.4  0.00  0.00   0.010   0.000   27.7    46   15.0   27.7   8.45  .0721    117    1    100.0    5 
27/05/16  17:00   15.6   15.6   15.4    84   12.9   4.0   SSW   0.33   6.0    SW   15.6   15.6   15.6  1014.5  0.00  0.00   0.010   0.000   27.7    46   15.0   27.7   8.45  .0721    118    1    100.0    5 
27/05/16  17:05   15.4   15.6   15.4    84   12.8   5.0    SW   0.42   6.0    SW   15.4   15.4   15.4  1014.4  0.00  0.00   0.010   0.000   27.8    46   15.1   27.9   8.45  .0721    117    1    100.0    5 
27/05/16  17:10   15.4   15.4   15.3    84   12.7   4.0    SW   0.33   6.0    SW   15.4   15.4   15.4  1014.4  0.00  0.00   0.010   0.000   27.9    46   15.2   28.0   8.45  .0721    117    1    100.0    5 
27/05/16  17:15   15.5   15.6   15.4    85   13.0   5.0   WSW   0.42   7.0   WSW   15.5   15.6   15.6  1014.3  0.00  0.00   0.010   0.000   27.9    46   15.2   28.1   8.45  .0721    116    1    100.0    5 
27/05/16  17:20   15.4   15.5   15.4    85   12.9   5.0    SW   0.42   6.0    SW   15.3   15.4   15.4  1014.4  0.00  0.00   0.010   0.000   28.1    46   15.4   28.2   8.45  .0720    117    1    100.0    5 
27/05/16  17:25   15.3   15.4   15.3    85   12.8   5.0    SW   0.42   6.0    SW   15.3   15.4   15.3  1014.4  0.00  0.00   0.010   0.000   28.1    46   15.4   28.3   8.45  .0720    117    1    100.0    5 
27/05/16  17:30   15.4   15.4   15.3    86   13.1   4.0    SW   0.33   6.0    SW   15.4   15.5   15.5  1014.4  0.00  0.00   0.010   0.000   28.2    46   15.5   28.4   8.45  .0720    115    1    100.0    5 
27/05/16  17:35   15.2   15.4   15.2    85   12.7   5.0    SW   0.42   6.0   SSW   15.2   15.2   15.2  1014.5  0.00  0.00   0.011   0.000   28.3    46   15.6   28.6   8.45  .0720    114    1    100.0    5 
27/05/16  17:40   15.2   15.2   15.2    86   12.9   4.0    SW   0.33   6.0    SW   15.2   15.3   15.3  1014.5  0.00  0.00   0.011   0.000   28.3    46   15.6   28.7   8.45  .0719    117    1    100.0    5 
27/05/16  17:45   15.1   15.2   15.1    86   12.7   5.0    SW   0.42   6.0   WSW   14.9   15.1   14.9  1014.4  0.00  0.00   0.011   0.000   28.4    46   15.7   28.8   8.45  .0719    117    1    100.0    5 
27/05/16  17:50   15.0   15.1   14.9    87   12.9   5.0    SW   0.42   6.0    SW   14.9   15.1   14.9  1014.4  0.00  0.00   0.012   0.000   28.4    46   15.7   28.9   8.45  .0719    117    1    100.0    5 
27/05/16  17:55   14.9   15.0   14.9    87   12.7   6.0    SW   0.50   7.0    SW   14.6   14.9   14.6  1014.5  0.00  0.00   0.012   0.000   28.5    46   15.8   28.9   8.45  .0719    117    1    100.0    5 
27/05/16  18:00   15.0   15.0   14.9    88   13.0   5.0    SW   0.42   7.0   WSW   14.9   15.1   14.9  1014.5  0.00  0.00   0.012   0.000   28.6    46   15.8   29.1   8.45  .0719    116    1    100.0    5 
27/05/16  18:05   15.1   15.1   15.0    87   12.9   5.0    SW   0.42   6.0   WSW   14.9   15.1   15.0  1014.5  0.00  0.00   0.011   0.000   28.6    46   15.9   29.1   8.45  .0719    118    1    100.0    5 
27/05/16  18:10   14.9   15.1   14.9    87   12.8   4.0    SW   0.33   6.0   SSW   14.9   15.0   15.0  1014.5  0.00  0.00   0.012   0.000   28.7    46   15.9   29.2   8.45  .0718    115    1    100.0    5 
27/05/16  18:15   14.8   14.9   14.8    87   12.7   4.0    SW   0.33   6.0   WSW   14.8   14.9   14.9  1014.5  0.00  0.00   0.012   0.000   28.7    46   16.0   29.3   8.45  .0718    116    1    100.0    5 
27/05/16  18:20   14.8   14.8   14.8    88   12.9   4.0    SW   0.33   6.0    SW   14.8   14.9   14.9  1014.4  0.00  0.00   0.012   0.000   28.8    47   16.3   29.5   8.57  .0718    117    1    100.0    5 
27/05/16  18:25   14.9   14.9   14.8    87   12.7   4.0    SW   0.33   5.0    SW   14.9   14.9   14.9  1014.4  0.00  0.00   0.012   0.000   28.8    47   16.4   29.6   8.57  .0718    117    1    100.0    5 
27/05/16  18:30   14.8   14.9   14.8    87   12.7   4.0    SW   0.33   5.0    SW   14.8   14.9   14.9  1014.4  0.00  0.00   0.012   0.000   28.9    47   16.5   29.7   8.57  .0717    116    1    100.0    5 
27/05/16  18:35   14.9   14.9   14.8    87   12.8   3.0    SW   0.25   5.0    SW   14.9   15.0   15.0  1014.4  0.00  0.00   0.012   0.000   29.0    47   16.5   29.8   8.57  .0717    116    1    100.0    5 
27/05/16  18:40   15.1   15.1   14.9    88   13.1   2.0    SW   0.17   4.0    SW   15.1   15.2   15.2  1014.4  0.00  0.00   0.011   0.000   29.1    48   16.9   29.9   8.76  .0717    115    1    100.0    5 
27/05/16  18:45   15.2   15.2   15.1    87   13.1   3.0   WSW   0.25   5.0    SW   15.2   15.3   15.3  1014.5  0.00  0.00   0.011   0.000   29.2    48   17.0   30.0   8.76  .0716    117    1    100.0    5 
27/05/16  18:50   15.3   15.3   15.2    87   13.1   3.0    SW   0.25   4.0   SSW   15.3   15.3   15.3  1014.5  0.00  0.00   0.011   0.000   29.2    48   17.1   30.1   8.76  .0716    117    1    100.0    5 
27/05/16  18:55   15.2   15.3   15.2    87   13.0   3.0    SW   0.25   4.0    SW   15.2   15.2   15.2  1014.5  0.00  0.00   0.011   0.000   29.3    48   17.1   30.1   8.76  .0716    117    1    100.0    5 
27/05/16  19:00   15.2   15.2   15.2    87   13.0   2.0    SW   0.17   4.0    SW   15.2   15.2   15.2  1014.5  0.00  0.00   0.011   0.000   29.3    48   17.1   30.1   8.76  .0716    116    1    100.0    5 
27/05/16  19:05   15.2   15.2   15.2    87   13.0   3.0   WSW   0.25   4.0   WSW   15.2   15.2   15.2  1014.5  0.00  0.00   0.011   0.000   29.3    48   17.2   30.2   8.75  .0716    116    1    100.0    5 
27/05/16  19:10   15.2   15.2   15.1    87   13.0   3.0   WSW   0.25   4.0   WSW   15.2   15.2   15.2  1014.5  0.00  0.00   0.011   0.000   29.4    48   17.2   30.2   8.75  .0716    117    1    100.0    5 
27/05/16  19:15   15.2   15.2   15.2    87   13.0   3.0   WSW   0.25   4.0   WSW   15.2   15.2   15.2  1014.5  0.00  0.00   0.011   0.000   29.4    48   17.3   30.3   8.75  .0715    116    1    100.0    5 
27/05/16  19:20   15.1   15.2   15.1    87   13.0   3.0    SW   0.25   4.0   WSW   15.1   15.2   15.2  1014.5  0.00  0.00   0.011   0.000   29.4    48   17.3   30.3   8.75  .0715    117    1    100.0    5 
27/05/16  19:25   15.1   15.2   15.1    87   12.9   3.0    SW   0.25   4.0    SW   15.1   15.1   15.1  1014.5  0.00  0.00   0.011   0.000   29.5    47   17.0   30.2   8.55  .0715    117    1    100.0    5 
27/05/16  19:30   15.1   15.1   15.1    87   12.9   3.0    SW   0.25   4.0    SW   15.1   15.1   15.1  1014.6  0.00  0.00   0.011   0.000   29.5    47   17.0   30.2   8.55  .0716    116    1    100.0    5 
27/05/16  19:35   15.0   15.1   15.0    87   12.9   3.0    SW   0.25   5.0    SW   15.0   15.1   15.1  1014.6  0.00  0.00   0.012   0.000   29.6    47   17.1   30.3   8.55  .0715    116    1    100.0    5 
27/05/16  19:40   14.9   15.0   14.9    87   12.8   3.0    SW   0.25   5.0    SW   14.9   15.0   15.0  1014.7  0.00  0.00   0.012   0.000   29.6    47   17.1   30.3   8.55  .0715    116    1    100.0    5 
27/05/16  19:45   14.9   14.9   14.9    87   12.7   3.0    SW   0.25   4.0    SW   14.9   14.9   14.9  1014.7  0.00  0.00   0.012   0.000   29.6    47   17.1   30.3   8.55  .0715    117    1    100.0    5 
27/05/16  19:50   14.8   14.9   14.8    87   12.7   3.0    SW   0.25   4.0    SW   14.8   14.9   14.9  1014.7  0.00  0.00   0.012   0.000   29.6    46   16.7   30.2   8.45  .0716    117    1    100.0    5 
27/05/16  19:55   14.8   14.8   14.8    88   12.9   2.0    SW   0.17   3.0    SW   14.8   14.9   14.9  1014.7  0.00  0.00   0.012   0.000   29.6    46   16.8   30.3   8.44  .0716    116    1    100.0    5 
27/05/16  20:00   14.8   14.9   14.8    88   12.9   3.0    SW   0.25   4.0    SW   14.8   14.9   14.9  1014.8  0.00  0.00   0.012   0.000   29.6    46   16.8   30.3   8.44  .0716    117    1    100.0    5 
27/05/16  20:05   14.8   14.8   14.8    88   12.8   1.0    SW   0.08   3.0    SW   14.8   14.8   14.8  1014.8  0.00  0.00   0.012   0.000   29.6    46   16.8   30.3   8.44  .0716    117    1    100.0    5 
27/05/16  20:10   14.8   14.8   14.7    88   12.8   1.0    SW   0.08   2.0    SW   14.8   14.8   14.8  1014.7  0.00  0.00   0.012   0.000   29.6    46   16.8   30.3   8.44  .0716    118    1    100.0    5 
27/05/16  20:15   14.7   14.8   14.7    88   12.8   0.0    SW   0.00   2.0    SW   14.7   14.8   14.8  1014.7  0.00  0.00   0.013   0.000   29.6    46   16.8   30.3   8.44  .0716    117    1    100.0    5 
27/05/16  20:20   14.8   14.8   14.7    88   12.8   1.0    SW   0.08   2.0    SW   14.8   14.8   14.8  1014.8  0.00  0.00   0.012   0.000   29.6    46   16.8   30.3   8.44  .0716    117    1    100.0    5 
27/05/16  20:25   14.8   14.8   14.7    88   12.8   0.0    SW   0.00   1.0    SW   14.8   14.8   14.8  1014.8  0.00  0.00   0.012   0.000   29.6    46   16.8   30.3   8.44  .0716    116    1    100.0    5 
27/05/16  20:30   14.8   14.8   14.8    88   12.8   0.0   ---   0.00   0.0   ---   14.8   14.8   14.8  1014.8  0.00  0.00   0.012   0.000   29.6    45   16.4   30.2   8.24  .0716    117    1    100.0    5 
27/05/16  20:35   14.8   14.8   14.8    88   12.9   0.0   ---   0.00   0.0   ---   14.8   14.9   14.9  1014.8  0.00  0.00   0.012   0.000   29.6    45   16.4   30.2   8.24  .0716    116    1    100.0    5 
27/05/16  20:40   14.8   14.8   14.8    88   12.9   0.0   ---   0.00   0.0   ---   14.8   14.9   14.9  1014.9  0.00  0.00   0.012   0.000   29.6    45   16.4   30.2   8.24  .0716    117    1    100.0    5 
27/05/16  20:45   14.8   14.8   14.8    89   13.0   0.0   ---   0.00   0.0   ---   14.8   14.9   14.9  1014.9  0.00  0.00   0.012   0.000   29.6    45   16.4   30.2   8.24  .0716    117    1    100.0    5 
27/05/16  20:50   14.8   14.9   14.8    89   13.0   0.0    SW   0.00   2.0    SW   14.8   14.9   14.9  1015.0  0.00  0.00   0.012   0.000   29.6    45   16.4   30.2   8.24  .0716    117    1    100.0    5 
27/05/16  20:55   14.8   14.9   14.8    89   13.0   0.0    SW   0.00   1.0    SW   14.8   14.9   14.9  1015.0  0.00  0.00   0.012   0.000   29.6    45   16.4   30.1   8.25  .0716    117    1    100.0    5 
27/05/16  21:00   14.8   14.8   14.8    88   12.9   0.0    SW   0.00   1.0    SW   14.8   14.9   14.9  1015.0  0.00  0.00   0.012   0.000   29.6    45   16.4   30.1   8.25  .0716    115    1    100.0    5 
27/05/16  21:05   14.8   14.8   14.8    89   13.0   0.0    SW   0.00   2.0    SW   14.8   14.9   14.9  1015.1  0.00  0.00   0.012   0.000   29.6    45   16.4   30.1   8.25  .0716    117    1    100.0    5 
27/05/16  21:10   14.8   14.8   14.8    89   13.0   2.0     N   0.17   4.0    SW   14.8   14.9   14.9  1015.0  0.00  0.00   0.012   0.000   29.6    45   16.4   30.1   8.25  .0716    117    1    100.0    5 
27/05/16  21:15   14.8   14.8   14.8    88   12.8   4.0    NE   0.33   8.0   ENE   14.8   14.8   14.8  1015.0  0.00  0.00   0.012   0.000   29.6    45   16.4   30.1   8.25  .0716    117    1    100.0    5 
27/05/16  21:20   14.7   14.8   14.7    88   12.8   3.0    NE   0.25   7.0    NE   14.7   14.8   14.8  1015.1  0.00  0.00   0.013   0.000   29.6    45   16.4   30.1   8.25  .0716    116    1    100.0    5 
27/05/16  21:25   14.7   14.7   14.7    87   12.6   4.0    NE   0.33   7.0   ENE   14.7   14.7   14.7  1015.1  0.00  0.00   0.013   0.000   29.5    45   16.3   30.1   8.25  .0717    116    1    100.0    5 
27/05/16  21:30   14.7   14.8   14.7    87   12.6   2.0    NE   0.17   5.0   NNE   14.7   14.7   14.7  1015.2  0.00  0.00   0.013   0.000   29.5    45   16.3   30.1   8.25  .0717    117    1    100.0    5 
27/05/16  21:35   14.8   14.8   14.7    86   12.5   3.0    NE   0.25   6.0    NE   14.8   14.8   14.8  1015.3  0.00  0.00   0.012   0.000   29.5    44   16.0   29.9   8.15  .0717    117    1    100.0    5 
27/05/16  21:40   14.8   14.8   14.8    86   12.5   2.0   ENE   0.17   6.0    NE   14.8   14.8   14.8  1015.3  0.00  0.00   0.012   0.000   29.4    44   15.9   29.9   8.15  .0717    117    1    100.0    5 
27/05/16  21:45   14.8   14.8   14.8    85   12.3   3.0    NE   0.25   5.0   NNE   14.8   14.8   14.8  1015.3  0.00  0.00   0.012   0.000   29.4    44   15.9   29.9   8.15  .0717    114    1    100.0    5 
27/05/16  21:50   14.9   14.9   14.8    84   12.2   2.0    NE   0.17   6.0   NNE   14.9   14.8   14.8  1015.3  0.00  0.00   0.012   0.000   29.4    44   15.9   29.9   8.15  .0717    117    1    100.0    5 
27/05/16  21:55   14.9   14.9   14.9    84   12.3   3.0    NE   0.25   5.0    NE   14.9   14.9   14.9  1015.3  0.00  0.00   0.012   0.000   29.4    44   15.9   29.9   8.15  .0717    117    1    100.0    5 
27/05/16  22:00   14.9   14.9   14.9    83   12.1   2.0    NE   0.17   4.0    NE   14.9   14.9   14.9  1015.3  0.00  0.00   0.012   0.000   29.4    44   15.9   29.9   8.15  .0717    115    1    100.0    5 
27/05/16  22:05   14.9   14.9   14.9    83   12.1   2.0   NNE   0.17   6.0   NNE   14.9   14.9   14.9  1015.3  0.00  0.00   0.012   0.000   29.4    44   15.9   29.8   8.15  .0717    117    1    100.0    5 
27/05/16  22:10   14.9   14.9   14.9    82   11.8   3.0   NNE   0.25   6.0   NNE   14.9   14.8   14.8  1015.3  0.00  0.00   0.012   0.000   29.4    44   15.9   29.8   8.15  .0717    117    1    100.0    5 
27/05/16  22:15   14.8   14.9   14.8    82   11.8   3.0   NNE   0.25   5.0   NNE   14.8   14.8   14.8  1015.3  0.00  0.00   0.012   0.000   29.4    44   15.9   29.8   8.15  .0717    117    1    100.0    5 
27/05/16  22:20   14.8   14.8   14.8    82   11.7   2.0   NNE   0.17   5.0   NNE   14.8   14.7   14.7  1015.3  0.00  0.00   0.012   0.000   29.3    44   15.8   29.8   8.15  .0717    117    1    100.0    5 
27/05/16  22:25   14.8   14.8   14.8    82   11.7   2.0    NE   0.17   4.0    NE   14.8   14.7   14.7  1015.2  0.00  0.00   0.012   0.000   29.3    44   15.8   29.8   8.15  .0717    117    1    100.0    5 
27/05/16  22:30   14.7   14.8   14.7    82   11.7   2.0    NE   0.17   7.0   ENE   14.7   14.7   14.7  1015.2  0.00  0.00   0.013   0.000   29.3    44   15.8   29.8   8.15  .0717    117    1    100.0    5 
27/05/16  22:35   14.7   14.7   14.7    82   11.7   3.0   NNE   0.25   8.0    NE   14.7   14.7   14.7  1015.2  0.00  0.00   0.013   0.000   29.3    44   15.8   29.8   8.15  .0717    117    1    100.0    5 
27/05/16  22:40   14.7   14.7   14.7    82   11.7   2.0   NNE   0.17   5.0   NNE   14.7   14.7   14.7  1015.2  0.00  0.00   0.013   0.000   29.3    44   15.8   29.8   8.15  .0717    116    1    100.0    5 
27/05/16  22:45   14.7   14.7   14.7    81   11.5   3.0    NE   0.25   5.0   ENE   14.7   14.6   14.6  1015.2  0.00  0.00   0.013   0.000   29.3    44   15.8   29.8   8.15  .0718    117    1    100.0    5 
27/05/16  22:50   14.7   14.7   14.7    81   11.4   4.0    NE   0.33   8.0    NE   14.7   14.6   14.6  1015.2  0.00  0.00   0.013   0.000   29.3    44   15.8   29.8   8.15  .0718    117    1    100.0    5 
27/05/16  22:55   14.7   14.7   14.7    81   11.4   4.0    NE   0.33  10.0    NE   14.7   14.6   14.6  1015.2  0.00  0.00   0.013   0.000   29.3    44   15.8   29.8   8.15  .0718    116    1    100.0    5 
27/05/16  23:00   14.7   14.7   14.7    81   11.4   5.0    NE   0.42   9.0   NNE   14.5   14.6   14.4  1015.2  0.00  0.00   0.013   0.000   29.3    44   15.8   29.8   8.15  .0718    117    1    100.0    5 
27/05/16  23:05   14.6   14.7   14.6    81   11.4   6.0   NNE   0.50  11.0   NNE   14.2   14.5   14.1  1015.2  0.00  0.00   0.013   0.000   29.3    44   15.8   29.8   8.15  .0718    117    1    100.0    5 
27/05/16  23:10   14.6   14.7   14.6    81   11.4   5.0    NE   0.42  10.0    NE   14.4   14.5   14.3  1015.2  0.00  0.00   0.013   0.000   29.3    44   15.8   29.8   8.15  .0718    116    1    100.0    5 
27/05/16  23:15   14.6   14.6   14.6    81   11.3   7.0    NE   0.58  11.0    NE   13.9   14.4   13.8  1015.2  0.00  0.00   0.013   0.000   29.3    44   15.8   29.8   8.15  .0718    116    1    100.0    5 
27/05/16  23:20   14.6   14.6   14.5    81   11.3   6.0   NNE   0.50   9.0    NE   14.1   14.4   14.0  1015.1  0.00  0.00   0.013   0.000   29.3    44   15.8   29.8   8.15  .0717    117    1    100.0    5 
27/05/16  23:25   14.4   14.5   14.4    81   11.2   4.0   NNE   0.33   8.0    NE   14.4   14.3   14.3  1015.1  0.00  0.00   0.014   0.000   29.2    44   15.7   29.7   8.15  .0718    116    1    100.0    5 
27/05/16  23:30   14.4   14.4   14.4    81   11.2   5.0   NNE   0.42   9.0   NNE   14.2   14.3   14.1  1015.0  0.00  0.00   0.014   0.000   29.2    44   15.7   29.7   8.15  .0718    116    1    100.0    5 
27/05/16  23:35   14.3   14.4   14.3    82   11.3   5.0   NNE   0.42   9.0   NNE   14.1   14.2   14.0  1015.0  0.00  0.00   0.014   0.000   29.2    44   15.7   29.7   8.15  .0718    117    1    100.0    5 
27/05/16  23:40   14.3   14.3   14.3    82   11.2   5.0   NNE   0.42   9.0   NNE   14.0   14.2   13.9  1015.0  0.00  0.00   0.014   0.000   29.2    44   15.7   29.7   8.15  .0718    117    1    100.0    5 
27/05/16  23:45   14.2   14.3   14.2    82   11.1   5.0   NNE   0.42   8.0   NNE   13.9   14.1   13.8  1015.0  0.00  0.00   0.014   0.000   29.2    44   15.7   29.7   8.15  .0718    117    1    100.0    5 
27/05/16  23:50   14.1   14.2   14.1    82   11.1   5.0   NNE   0.42   9.0    NE   13.8   14.0   13.7  1015.0  0.00  0.00   0.015   0.000   29.2    44   15.7   29.7   8.15  .0718    117    1    100.0    5 
27/05/16  23:55   14.1   14.1   14.1    82   11.0   5.0   NNE   0.42   9.0   NNE   13.8   13.9   13.7  1015.0  0.00  0.00   0.015   0.000   29.1    44   15.6   29.6   8.15  .0718    116    1    100.0    5 
28/05/16  00:00   14.1   14.1   14.1    83   11.2   5.0   NNE   0.42   8.0   NNE   13.8   13.9   13.7  1014.9  0.00  0.00   0.015   0.000   29.1    44   15.6   29.6   8.15  .0718    116    1    100.0    5 
28/05/16   0:05   14.1   14.1   14.0    83   11.2   5.0   NNE   0.42  10.0    NE   13.8   13.9   13.7  1014.9  0.00  0.00   0.015   0.000   29.1    44   15.6   29.6   8.15  .0718    114    1    100.0    5 
28/05/16   0:10   14.1   14.1   14.0    83   11.2   4.0   NNE   0.33  10.0   NNE   14.1   13.9   13.9  1015.0  0.00  0.00   0.015   0.000   29.1    44   15.6   29.6   8.15  .0718    116    1    100.0    5 
28/05/16   0:15   14.1   14.1   14.0    83   11.2   3.0    NE   0.25   8.0    NE   14.1   13.9   13.9  1015.0  0.00  0.00   0.015   0.000   29.1    44   15.6   29.6   8.15  .0718    113    1     99.1    5 
28/05/16   0:20   14.1   14.1   14.1    83   11.2   2.0   NNE   0.17   5.0     N   14.1   13.9   13.9  1015.0  0.00  0.00   0.015   0.000   29.1    44   15.6   29.6   8.15  .0718    117    1    100.0    5 
28/05/16   0:25   14.1   14.1   14.1    83   11.3   2.0    NE   0.17   6.0   NNE   14.1   14.0   14.0  1015.0  0.00  0.00   0.015   0.000   29.0    44   15.5   29.5   8.15  .0718    117    1    100.0    5 
28/05/16   0:30   14.2   14.2   14.1    83   11.3   4.0    NE   0.33  11.0    NE   14.2   14.1   14.1  1015.0  0.00  0.00   0.014   0.000   28.9    44   15.5   29.4   8.15  .0718    116    1    100.0    5 
28/05/16   0:35   14.2   14.2   14.1    83   11.3   6.0   NNE   0.50  11.0   NNE   13.7   14.1   13.6  1014.9  0.00  0.00   0.014   0.000   28.9    44   15.5   29.4   8.15  .0718    117    1    100.0    5 
28/05/16   0:40   14.1   14.2   14.1    83   11.3   6.0   NNE   0.50  11.0    NE   13.6   14.0   13.5  1014.9  0.00  0.00   0.015   0.000   28.9    43   15.1   29.3   7.97  .0719    115    1    100.0    5 
28/05/16   0:45   14.2   14.2   14.1    83   11.3   5.0    NE   0.42  10.0    NE   13.9   14.1   13.8  1014.8  0.00  0.00   0.014   0.000   28.9    43   15.1   29.3   7.97  .0719    115    1    100.0    5 
28/05/16   0:50   14.1   14.1   14.1    82   11.1   5.0    NE   0.42   9.0    NE   13.8   14.0   13.7  1014.8  0.00  0.00   0.015   0.000   28.8    43   15.0   29.2   7.97  .0719    117    1    100.0    5 
28/05/16   0:55   14.1   14.1   14.1    82   11.0   5.0   NNE   0.42   9.0   ENE   13.8   13.9   13.7  1014.8  0.00  0.00   0.015   0.000   28.8    43   15.0   29.2   7.97  .0719    116    1    100.0    5 
28/05/16   1:00   14.1   14.1   14.1    82   11.0   4.0   NNE   0.33   6.0    NE   14.1   13.9   13.9  1014.7  0.00  0.00   0.015   0.000   28.8    43   15.0   29.2   7.97  .0719    116    1    100.0    5 
28/05/16   1:05   14.1   14.1   14.1    82   11.0   4.0   NNE   0.33   7.0   NNE   14.1   13.9   13.9  1014.7  0.00  0.00   0.015   0.000   28.8    43   15.0   29.2   7.97  .0719    117    1    100.0    5 
28/05/16   1:10   14.1   14.1   14.1    82   11.0   3.0   NNE   0.25   9.0   NNE   14.1   13.9   13.9  1014.7  0.00  0.00   0.015   0.000   28.7    43   14.9   29.1   7.98  .0719    116    1    100.0    5 
28/05/16   1:15   14.1   14.1   14.1    83   11.2   4.0   NNE   0.33   7.0    NE   14.1   13.9   13.9  1014.8  0.00  0.00   0.015   0.000   28.7    43   14.9   29.1   7.98  .0719    117    1    100.0    5 
28/05/16   1:20   14.1   14.1   14.1    83   11.2   5.0   NNE   0.42  10.0    NE   13.8   13.9   13.7  1014.7  0.00  0.00   0.015   0.000   28.7    43   14.9   28.9   7.98  .0719    116    1    100.0    5 
28/05/16   1:25   14.1   14.1   14.0    83   11.2   4.0   NNE   0.33   9.0    NE   14.1   13.9   13.9  1014.7  0.00  0.00   0.015   0.000   28.7    43   14.9   28.9   7.98  .0719    115    1    100.0    5 
28/05/16   1:30   14.1   14.1   14.0    83   11.2   4.0   NNE   0.33   8.0   NNE   14.1   13.9   13.9  1014.8  0.00  0.00   0.015   0.000   28.6    43   14.8   28.9   7.98  .0720    116    1    100.0    5 
28/05/16   1:35   14.1   14.1   14.1    83   11.2   4.0   NNE   0.33   7.0   NNE   14.1   13.9   13.9  1014.7  0.00  0.00   0.015   0.000   28.6    43   14.8   28.9   7.98  .0720    117    1    100.0    5 
28/05/16   1:40   14.1   14.1   14.1    83   11.2   3.0   NNE   0.25   6.0    NE   14.1   13.9   13.9  1014.8  0.00  0.00   0.015   0.000   28.6    43   14.8   28.8   7.98  .0720    117    1    100.0    5 
28/05/16   1:45   14.1   14.1   14.0    83   11.2   5.0   NNE   0.42   9.0   NNE   13.8   13.9   13.7  1014.8  0.00  0.00   0.015   0.000   28.6    43   14.8   28.8   7.98  .0720    116    1    100.0    5 
28/05/16   1:50   14.0   14.1   14.0    83   11.2   4.0   NNE   0.33   9.0   NNE   14.0   13.9   13.9  1014.8  0.00  0.00   0.015   0.000   28.5    43   14.7   28.7   7.98  .0720    118    1    100.0    5 
28/05/16   1:55   13.9   14.0   13.9    83   11.1   5.0   NNE   0.42   8.0   NNE   13.6   13.8   13.5  1014.8  0.00  0.00   0.015   0.000   28.4    43   14.7   28.6   7.99  .0720    117    1    100.0    5 
28/05/16   2:00   13.9   13.9   13.9    83   11.1   4.0   NNE   0.33   7.0     N   13.9   13.8   13.8  1014.7  0.00  0.00   0.015   0.000   28.4    43   14.7   28.6   7.99  .0720    117    1    100.0    5 
28/05/16   2:05   13.9   13.9   13.9    83   11.0   4.0   NNE   0.33   6.0   NNE   13.9   13.8   13.8  1014.6  0.00  0.00   0.015   0.000   28.4    43   14.7   28.6   7.99  .0720    116    1    100.0    5 
28/05/16   2:10   13.8   13.9   13.8    83   11.0   3.0   NNE   0.25   6.0     N   13.8   13.7   13.7  1014.7  0.00  0.00   0.016   0.000   28.4    43   14.6   28.5   7.99  .0720    117    1    100.0    5 
28/05/16   2:15   13.8   13.8   13.8    84   11.2   3.0   NNE   0.25   7.0    NE   13.8   13.8   13.8  1014.6  0.00  0.00   0.016   0.000   28.4    43   14.6   28.5   7.99  .0720    116    1    100.0    5 
28/05/16   2:20   13.8   13.8   13.8    84   11.2   4.0   NNE   0.33   8.0    NE   13.8   13.8   13.8  1014.6  0.00  0.00   0.016   0.000   28.3    43   14.6   28.4   7.99  .0720    115    1    100.0    5 
28/05/16   2:25   13.8   13.8   13.8    84   11.2   4.0   NNE   0.33   7.0    NE   13.8   13.8   13.8  1014.5  0.00  0.00   0.016   0.000   28.3    43   14.6   28.4   7.99  .0720    117    1    100.0    5 
28/05/16   2:30   13.8   13.8   13.8    84   11.2   5.0   NNE   0.42   9.0     N   13.5   13.8   13.4  1014.5  0.00  0.00   0.016   0.000   28.3    43   14.5   28.3   7.99  .0720    117    1    100.0    5 
28/05/16   2:35   13.9   13.9   13.8    84   11.2   5.0   NNE   0.42   9.0   NNE   13.6   13.8   13.5  1014.5  0.00  0.00   0.015   0.000   28.2    43   14.5   28.3   7.99  .0721    117    1    100.0    5 
28/05/16   2:40   13.9   13.9   13.9    84   11.2   5.0   NNE   0.42  11.0   NNE   13.6   13.8   13.5  1014.5  0.00  0.00   0.015   0.000   28.2    43   14.5   28.3   7.99  .0721    117    1    100.0    5 
28/05/16   2:45   13.9   13.9   13.9    84   11.2   5.0   NNE   0.42   8.0    NE   13.6   13.8   13.5  1014.5  0.00  0.00   0.015   0.000   28.2    43   14.4   28.2   8.00  .0721    113    1     99.1    5 
28/05/16   2:50   13.9   13.9   13.9    85   11.4   5.0    NE   0.42  10.0    NE   13.6   13.8   13.5  1014.5  0.00  0.00   0.015   0.000   28.2    43   14.4   28.2   8.00  .0721    117    1    100.0    5 
28/05/16   2:55   13.9   13.9   13.9    85   11.5   5.0   NNE   0.42  11.0    NE   13.6   13.9   13.6  1014.4  0.00  0.00   0.015   0.000   28.1    43   14.4   28.1   8.00  .0721    118    1    100.0    5 
28/05/16   3:00   13.9   13.9   13.9    86   11.6   6.0   NNE   0.50  10.0    NE   13.3   13.8   13.3  1014.3  0.00  0.00   0.015   0.000   28.1    43   14.4   28.1   8.00  .0721    117    1    100.0    5 
28/05/16   3:05   13.8   13.9   13.8    86   11.5   4.0    NE   0.33   8.0    NE   13.8   13.7   13.7  1014.3  0.00  0.00   0.016   0.000   28.1    43   14.3   28.0   8.00  .0721    113    1     99.1    5 
28/05/16   3:10   13.7   13.8   13.7    87   11.6   5.0    NE   0.42   8.0    NE   13.4   13.7   13.4  1014.2  0.00  0.00   0.016   0.000   28.1    43   14.3   28.0   8.00  .0721    116    1    100.0    5 
28/05/16   3:15   13.7   13.7   13.7    87   11.5   6.0   NNE   0.50  11.0    NE   13.1   13.7   13.1  1014.1  0.00  0.00   0.016   0.000   28.0    43   14.3   27.9   8.00  .0721    117    1    100.0    5 
28/05/16   3:20   13.6   13.7   13.6    88   11.7   4.0   NNE   0.33  10.0   ENE   13.6   13.6   13.6  1014.1  0.00  0.00   0.016   0.000   28.0    43   14.3   27.9   8.00  .0721    117    1    100.0    5 
28/05/16   3:25   13.6   13.6   13.6    88   11.6   5.0   NNE   0.42  10.0    NE   13.2   13.6   13.2  1014.1  0.00  0.00   0.017   0.000   27.9    43   14.2   27.8   8.00  .0721    117    1    100.0    5 
28/05/16   3:30   13.5   13.6   13.5    88   11.6   4.0     N   0.33   9.0    NE   13.4   13.5   13.4  1014.1  0.00  0.00   0.017   0.000   27.9    43   14.2   27.8   8.00  .0721    117    1    100.0    5 
28/05/16   3:35   13.4   13.5   13.4    89   11.7   3.0     N   0.25  10.0    NE   13.4   13.5   13.5  1014.1  0.00  0.00   0.017   0.000   27.9    43   14.2   27.8   8.01  .0721    117    1    100.0    5 
28/05/16   3:40   13.3   13.4   13.3    89   11.6   0.0    NE   0.00   3.0     N   13.3   13.4   13.4  1014.1  0.00  0.00   0.017   0.000   27.9    43   14.2   27.8   8.01  .0721    116    1    100.0    5 
28/05/16   3:45   13.3   13.3   13.3    89   11.6   2.0    NE   0.17   7.0    NE   13.3   13.4   13.4  1013.9  0.00  0.00   0.017   0.000   27.8    43   14.1   27.7   8.01  .0721    117    1    100.0    5 
28/05/16   3:50   13.3   13.3   13.3    89   11.6   2.0    NE   0.17   5.0   NNE   13.3   13.4   13.4  1013.9  0.00  0.00   0.017   0.000   27.8    43   14.1   27.6   8.01  .0722    114    1    100.0    5 
28/05/16   3:55   13.3   13.3   13.3    90   11.7   1.0   NNE   0.08   3.0    NE   13.3   13.4   13.4  1013.9  0.00  0.00   0.017   0.000   27.8    43   14.1   27.6   8.01  .0722    117    1    100.0    5 
28/05/16   4:00   13.4   13.4   13.3    90   11.8   2.0   NNE   0.17   6.0   NNE   13.4   13.4   13.4  1013.9  0.00  0.00   0.017   0.000   27.7    43   14.0   27.5   8.01  .0722    118    1    100.0    5 
28/05/16   4:05   13.4   13.4   13.4    90   11.8   5.0   NNE   0.42   8.0   NNE   13.0   13.4   13.1  1013.8  0.00  0.00   0.017   0.000   27.7    43   14.0   27.5   8.01  .0722    117    1    100.0    5 
28/05/16   4:10   13.3   13.4   13.3    90   11.7   3.0   ENE   0.25   6.0   ENE   13.3   13.4   13.4  1013.9  0.00  0.00   0.017   0.000   27.7    43   14.0   27.4   8.01  .0722    117    1    100.0    5 
28/05/16   4:15   13.3   13.4   13.3    90   11.7   5.0    NE   0.42  13.0    NE   12.9   13.4   13.0  1013.8  0.00  0.00   0.017   0.000   27.7    43   14.0   27.4   8.01  .0722    116    1    100.0    5 
28/05/16   4:20   13.3   13.3   13.3    90   11.7   6.0   NNE   0.50  13.0   NNE   12.6   13.3   12.7  1013.8  0.00  0.00   0.018   0.000   27.6    43   13.9   27.4   8.02  .0722    117    1    100.0    5 
28/05/16   4:25   13.3   13.3   13.3    90   11.7   7.0    NE   0.58  14.0   ENE   12.4   13.3   12.4  1013.8  0.00  0.00   0.018   0.000   27.6    43   13.9   27.4   8.02  .0722    117    1    100.0    5 
28/05/16   4:30   13.3   13.3   13.3    90   11.7   7.0   NNE   0.58  11.0    NE   12.4   13.3   12.4  1013.8  0.00  0.00   0.018   0.000   27.6    43   13.9   27.4   8.02  .0722    117    1    100.0    5 
28/05/16   4:35   13.3   13.3   13.2    90   11.7   8.0   NNE   0.67  12.0    NE   12.0   13.3   12.1  1013.7  0.00  0.00   0.018   0.000   27.6    43   13.9   27.3   8.02  .0722    116    1    100.0    5 
28/05/16   4:40   13.2   13.2   13.2    90   11.6   9.0   NNE   0.75  15.0   NNE   11.6   13.3   11.6  1013.7  0.00  0.00   0.018   0.000   27.5    43   13.8   27.2   8.02  .0722    116    1    100.0    5 
28/05/16   4:45   13.2   13.2   13.2    90   11.6   7.0   NNE   0.58  15.0   NNE   12.2   13.2   12.3  1013.8  0.00  0.00   0.018   0.000   27.5    43   13.8   27.2   8.02  .0722    117    1    100.0    5 
28/05/16   4:50   13.1   13.2   13.1    90   11.5   9.0   NNE   0.75  15.0    NE   11.3   13.1   11.4  1013.7  0.00  0.00   0.018   0.000   27.4    43   13.8   27.2   8.02  .0722    116    1    100.0    5 
28/05/16   4:55   13.0   13.1   13.0    90   11.4   8.0   NNE   0.67  15.0   NNE   11.7   13.1   11.7  1013.8  0.00  0.00   0.019   0.000   27.4    43   13.8   27.2   8.02  .0722    116    1    100.0    5 
28/05/16   5:00   12.9   13.0   12.9    91   11.5   7.0   NNE   0.58  13.0   NNE   12.0   13.0   12.1  1013.8  0.00  0.00   0.019   0.000   27.4    43   13.8   27.2   8.02  .0722    116    1    100.0    5 
28/05/16   5:05   12.9   12.9   12.9    91   11.5   8.0   NNE   0.67  14.0   NNE   11.5   12.9   11.6  1013.8  0.00  0.00   0.019   0.000   27.4    43   13.7   27.1   8.02  .0723    118    1    100.0    5 
28/05/16   5:10   12.8   12.9   12.8    91   11.4   8.0   NNE   0.67  17.0   NNE   11.4   12.9   11.5  1013.8  0.00  0.00   0.019   0.000   27.3    43   13.7   27.0   8.03  .0723    116    1    100.0    5 
28/05/16   5:15   12.8   12.8   12.8    91   11.4   8.0   NNE   0.67  15.0    NE   11.4   12.9   11.5  1013.7  0.00  0.00   0.019   0.000   27.3    43   13.7   27.0   8.03  .0723    115    1    100.0    5 
28/05/16   5:20   12.8   12.8   12.8    91   11.3   9.0   NNE   0.75  17.0   NNE   11.0   12.8   11.1  1013.7  0.00  0.00   0.019   0.000   27.3    43   13.7   27.0   8.03  .0723    113    1     99.1    5 
28/05/16   5:25   12.7   12.8   12.7    91   11.3   9.0   NNE   0.75  15.0    NE   10.9   12.8   11.0  1013.7  0.00  0.00   0.019   0.000   27.3    43   13.6   26.9   8.03  .0723    117    1    100.0    5 
28/05/16   5:30   12.7   12.7   12.7    91   11.3   8.0   NNE   0.67  14.0   NNE   11.3   12.8   11.4  1013.7  0.00  0.00   0.019   0.000   27.2    43   13.6   26.9   8.03  .0723    117    1    100.0    5 
28/05/16   5:35   12.7   12.7   12.7    91   11.2   7.0   NNE   0.58  13.0    NE   11.7   12.7   11.7  1013.7  0.00  0.00   0.020   0.000   27.2    43   13.6   26.9   8.03  .0723    117    1    100.0    5 
28/05/16   5:40   12.7   12.7   12.6    91   11.2   7.0   NNE   0.58  11.0   NNE   11.7   12.7   11.7  1013.7  0.00  0.00   0.020   0.000   27.2    43   13.5   26.8   8.03  .0723    116    1    100.0    5 
28/05/16   5:45   12.6   12.7   12.6    91   11.2   8.0   NNE   0.67  14.0    NE   11.2   12.7   11.2  1013.7  0.00  0.00   0.020   0.000   27.2    43   13.5   26.8   8.03  .0723    117    1    100.0    5 
28/05/16   5:50   12.6   12.6   12.6    91   11.1   7.0   NNE   0.58  14.0   NNE   11.5   12.6   11.6  1013.7  0.00  0.00   0.020   0.000   27.1    43   13.5   26.8   8.03  .0723    117    1    100.0    5 
28/05/16   5:55   12.5   12.6   12.5    91   11.1   7.0   NNE   0.58  15.0   NNE   11.4   12.6   11.5  1013.7  0.00  0.00   0.020   0.000   27.1    43   13.5   26.8   8.03  .0723    116    1    100.0    5 
28/05/16   6:00   12.5   12.5   12.5    92   11.2   5.0   NNE   0.42   8.0     N   11.9   12.6   12.0  1013.7  0.00  0.00   0.020   0.000   27.1    43   13.5   26.8   8.03  .0723    117    1    100.0    5 
28/05/16   6:05   12.5   12.5   12.5    92   11.2   6.0   NNE   0.50  11.0    NE   11.7   12.6   11.7  1013.7  0.00  0.00   0.020   0.000   27.1    43   13.5   26.8   8.03  .0723    115    1    100.0    5 
28/05/16   6:10   12.5   12.6   12.5    92   11.2   7.0   NNE   0.58  10.0     N   11.4   12.6   11.5  1013.7  0.00  0.00   0.020   0.000   27.1    43   13.4   26.7   8.04  .0724    117    1    100.0    5 
28/05/16   6:15   12.5   12.5   12.5    92   11.2   9.0   NNE   0.75  14.0   NNE   10.7   12.6   10.7  1013.6  0.00  0.00   0.020   0.000   27.0    43   13.4   26.7   8.04  .0724    117    1    100.0    5 
28/05/16   6:20   12.6   12.6   12.5    92   11.3   6.0   NNE   0.50  10.0     N   11.7   12.6   11.8  1013.7  0.00  0.00   0.020   0.000   27.0    43   13.4   26.7   8.04  .0724    117    1    100.0    5 
28/05/16   6:25   12.6   12.6   12.6    92   11.3   6.0   NNE   0.50  11.0   NNE   11.8   12.7   11.8  1013.7  0.00  0.00   0.020   0.000   26.9    43   13.3   26.6   8.04  .0724    115    1    100.0    5 
28/05/16   6:30   12.7   12.7   12.6    92   11.5   7.0    NE   0.58  13.0    NE   11.7   12.8   11.8  1013.7  0.00  0.00   0.019   0.000   26.9    43   13.3   26.6   8.04  .0724    116    1    100.0    5 
28/05/16   6:35   12.7   12.8   12.7    92   11.5   7.0   NNE   0.58  11.0    NE   11.7   12.8   11.8  1013.7  0.00  0.00   0.019   0.000   26.9    43   13.3   26.6   8.04  .0724    116    1    100.0    5 
28/05/16   6:40   12.8   12.8   12.7    92   11.5   6.0   NNE   0.50  12.0    NE   12.0   12.8   12.1  1013.8  0.00  0.00   0.019   0.000   26.9    43   13.3   26.6   8.04  .0724    115    1    100.0    5 
28/05/16   6:45   12.8   12.8   12.8    92   11.6   7.0   NNE   0.58  13.0   NNE   11.8   12.9   11.9  1013.8  0.00  0.00   0.019   0.000   26.8    43   13.2   26.5   8.04  .0724    117    1    100.0    5 
28/05/16   6:50   12.8   12.8   12.8    92   11.6   6.0   NNE   0.50  11.0    NE   12.1   12.9   12.1  1013.8  0.00  0.00   0.019   0.000   26.8    43   13.2   26.5   8.04  .0724    116    1    100.0    5 
28/05/16   6:55   12.9   12.9   12.8    92   11.6   5.0   NNE   0.42   9.0   NNE   12.4   12.9   12.4  1013.8  0.00  0.00   0.019   0.000   26.8    43   13.2   26.4   8.05  .0725    117    1    100.0    5 
28/05/16   7:00   12.9   12.9   12.9    92   11.6   6.0   NNE   0.50  14.0   NNE   12.1   12.9   12.2  1013.8  0.00  0.00   0.019   0.000   26.8    43   13.2   26.4   8.05  .0725    117    1    100.0    5 
28/05/16   7:05   12.9   12.9   12.9    92   11.6   5.0   NNE   0.42   9.0    NE   12.4   12.9   12.4  1013.8  0.00  0.00   0.019   0.000   26.8    43   13.2   26.4   8.05  .0725    116    1    100.0    5 
28/05/16   7:10   12.8   12.9   12.8    92   11.6   6.0   NNE   0.50  13.0    NE   12.1   12.9   12.1  1013.8  0.00  0.00   0.019   0.000   26.7    43   13.1   26.4   8.05  .0725    118    1    100.0    5 
28/05/16   7:15   12.8   12.8   12.8    92   11.6   7.0   NNE   0.58  11.0   NNE   11.8   12.9   11.9  1013.9  0.00  0.00   0.019   0.000   26.7    43   13.1   26.4   8.05  .0725    117    1    100.0    5 
28/05/16   7:20   12.8   12.8   12.8    92   11.5   6.0    NE   0.50  11.0   NNE   12.0   12.8   12.1  1013.9  0.00  0.00   0.019   0.000   26.7    43   13.1   26.4   8.05  .0725    116    1    100.0    5 
28/05/16   7:25   12.8   12.8   12.8    92   11.5   8.0   NNE   0.67  13.0    NE   11.4   12.8   11.4  1013.8  0.00  0.00   0.019   0.000   26.7    43   13.1   26.4   8.05  .0725    117    1    100.0    5 
28/05/16   7:30   12.8   12.8   12.8    92   11.5   6.0   NNE   0.50  12.0    NE   12.0   12.8   12.1  1013.8  0.00  0.00   0.019   0.000   26.7    43   13.1   26.3   8.05  .0725    117    1    100.0    5 
28/05/16   7:35   12.9   12.9   12.8    92   11.6   6.0   NNE   0.50  13.0   NNE   12.1   12.9   12.2  1013.8  0.00  0.00   0.019   0.000   26.7    43   13.1   26.3   8.05  .0725    114    1    100.0    5 
28/05/16   7:40   13.0   13.0   12.9    92   11.7   6.0   NNE   0.50  14.0    NE   12.3   13.1   12.3  1013.9  0.00  0.00   0.019   0.000   26.6    43   13.0   26.3   8.05  .0725    115    1    100.0    5 
28/05/16   7:45   13.2   13.2   13.0    92   11.9   6.0   NNE   0.50  12.0    NE   12.4   13.2   12.5  1013.9  0.00  0.00   0.018   0.000   26.6    43   13.0   26.3   8.05  .0725    116    1    100.0    5 
28/05/16   7:50   13.2   13.2   13.2    92   12.0   6.0   NNE   0.50  13.0    NE   12.6   13.3   12.6  1013.9  0.00  0.00   0.018   0.000   26.6    43   13.0   26.3   8.05  .0725    117    1    100.0    5 
28/05/16   7:55   13.3   13.3   13.2    92   12.0   7.0    NE   0.58  12.0    NE   12.4   13.3   12.4  1013.8  0.00  0.00   0.018   0.000   26.6    43   13.0   26.3   8.05  .0725    115    1    100.0    5 
28/05/16   8:00   13.4   13.4   13.3    92   12.1   7.0    NE   0.58  13.0   NNE   12.5   13.4   12.6  1013.9  0.00  0.00   0.017   0.000   26.6    43   13.0   26.3   8.05  .0725    117    1    100.0    5 
28/05/16   8:05   13.4   13.4   13.4    91   12.0   8.0    NE   0.67  15.0   ENE   12.2   13.5   12.2  1014.0  0.00  0.00   0.017   0.000   26.6    43   13.0   26.3   8.05  .0725    117    1    100.0    5 
28/05/16   8:10   13.5   13.5   13.4    91   12.1   7.0   NNE   0.58  13.0    NE   12.7   13.6   12.7  1013.9  0.00  0.00   0.017   0.000   26.6    43   13.0   26.2   8.05  .0725    115    1    100.0    5 
28/05/16   8:15   13.6   13.6   13.6    91   12.2   7.0   NNE   0.58  13.0    NE   12.8   13.7   12.8  1013.9  0.00  0.00   0.016   0.000   26.6    43   13.0   26.3   8.05  .0725    116    1    100.0    5 
28/05/16   8:20   13.7   13.7   13.6    91   12.3   7.0   NNE   0.58  13.0   NNE   12.9   13.8   12.9  1013.9  0.00  0.00   0.016   0.000   26.6    43   13.0   26.2   8.05  .0725    115    1    100.0    5 
28/05/16   8:25   13.8   13.8   13.7    90   12.2   6.0   NNE   0.50  12.0   NNE   13.3   13.9   13.3  1013.9  0.00  0.00   0.016   0.000   26.5    44   13.3   26.2   8.16  .0725    117    1    100.0    5 
28/05/16   8:30   13.9   13.9   13.8    90   12.3   9.0   NNE   0.75  15.0    NE   12.3   13.9   12.3  1013.8  0.00  0.00   0.015   0.000   26.6    44   13.3   26.3   8.15  .0725    115    1    100.0    5 
28/05/16   8:35   14.1   14.1   13.9    90   12.5   7.0    NE   0.58  12.0    NE   13.4   14.2   13.4  1013.9  0.00  0.00   0.015   0.000   26.6    44   13.3   26.3   8.15  .0725    115    1    100.0    5 
28/05/16   8:40   14.3   14.3   14.1    90   12.7   6.0    NE   0.50  14.0    NE   13.8   14.3   13.8  1013.9  0.00  0.00   0.014   0.000   26.6    44   13.3   26.3   8.15  .0725    117    1    100.0    5 
28/05/16   8:45   14.3   14.4   14.3    89   12.5   7.0   NNE   0.58  13.0    NE   13.7   14.4   13.7  1013.9  0.00  0.00   0.014   0.000   26.6    44   13.4   26.3   8.15  .0725    116    1    100.0    5 
28/05/16   8:50   14.3   14.4   14.3    88   12.3   8.0   NNE   0.67  14.0    NE   13.2   14.3   13.2  1013.9  0.00  0.00   0.014   0.000   26.6    44   13.4   26.3   8.15  .0725    116    1    100.0    5 
28/05/16   8:55   14.3   14.3   14.3    88   12.3   9.0   NNE   0.75  14.0   NNE   12.7   14.3   12.7  1013.9  0.00  0.00   0.014   0.000   26.6    44   13.4   26.3   8.15  .0725    117    1    100.0    5 
28/05/16   9:00   14.3   14.3   14.3    88   12.4   8.0   NNE   0.67  15.0   NNE   13.3   14.3   13.3  1013.9  0.00  0.00   0.014   0.000   26.6    44   13.4   26.3   8.15  .0725    117    1    100.0    5 
28/05/16   9:05   14.3   14.3   14.3    88   12.4   9.0   NNE   0.75  15.0   NNE   12.8   14.3   12.8  1013.8  0.00  0.00   0.014   0.000   26.7    44   13.4   26.4   8.15  .0725    117    1    100.0    5 
28/05/16   9:10   14.3   14.3   14.3    88   12.4   6.0   NNE   0.50  11.0   NNE   13.9   14.3   13.9  1013.8  0.00  0.00   0.014   0.000   26.6    44   13.4   26.3   8.15  .0725    117    1    100.0    5 
28/05/16   9:15   14.4   14.4   14.3    88   12.4   8.0   NNE   0.67  14.0   NNE   13.3   14.4   13.3  1013.7  0.00  0.00   0.014   0.000   26.6    44   13.4   26.3   8.15  .0725    117    1    100.0    5 
28/05/16   9:20   14.5   14.5   14.4    88   12.5   9.0   NNE   0.75  16.0   NNE   13.0   14.5   13.0  1013.7  0.00  0.00   0.013   0.000   26.6    44   13.4   26.3   8.15  .0725    115    1    100.0    5 
28/05/16   9:25   14.9   14.9   14.5    88   12.9   8.0   NNE   0.67  15.0    NE   13.9   14.9   14.0  1013.7  0.00  0.00   0.012   0.000   26.6    44   13.4   26.3   8.15  .0725    117    1    100.0    5 
28/05/16   9:30   15.4   15.4   14.9    88   13.5   9.0   NNE   0.75  15.0   NNE   14.2   15.6   14.3  1013.7  0.00  0.00   0.010   0.000   26.6    44   13.4   26.3   8.15  .0725    115    1    100.0    5 
28/05/16   9:35   15.8   15.8   15.4    87   13.7   9.0   NNE   0.75  14.0   NNE   14.6   15.9   14.7  1013.7  0.00  0.00   0.009   0.000   26.7    44   13.4   26.4   8.15  .0725    116    1    100.0    5 
28/05/16   9:40   16.1   16.1   15.8    85   13.6   7.0    NE   0.58  14.0   ENE   15.8   16.2   15.9  1013.7  0.00  0.00   0.008   0.000   26.7    44   13.4   26.4   8.15  .0725    115    1    100.0    5 
28/05/16   9:45   16.2   16.2   16.1    84   13.5   8.0   NNE   0.67  13.0   ENE   15.4   16.3   15.6  1013.7  0.00  0.00   0.008   0.000   26.7    44   13.4   26.4   8.15  .0725    117    1    100.0    5 
28/05/16   9:50   16.2   16.2   16.2    84   13.5   8.0   NNE   0.67  14.0   NNE   15.4   16.3   15.6  1013.7  0.00  0.00   0.008   0.000   26.7    44   13.4   26.4   8.15  .0725    117    1    100.0    5 
28/05/16   9:55   15.9   16.2   15.9    83   13.1  10.0   NNE   0.83  16.0   NNE   14.3   16.0   14.4  1013.7  0.00  0.00   0.008   0.000   26.7    44   13.4   26.4   8.15  .0725    117    1    100.0    5 
28/05/16  10:00   15.9   15.9   15.9    84   13.2  10.0   NNE   0.83  16.0    NE   14.3   15.9   14.3  1013.7  0.00  0.00   0.008   0.000   26.7    44   13.4   26.4   8.15  .0725    117    1    100.0    5 
28/05/16  10:05   16.1   16.1   15.9    83   13.2  10.0   NNE   0.83  20.0   NNE   14.4   16.1   14.5  1013.7  0.00  0.00   0.008   0.000   26.7    44   13.5   26.4   8.15  .0724    117    1    100.0    5 
28/05/16  10:10   16.2   16.2   16.1    83   13.3  10.0   NNE   0.83  16.0     N   14.6   16.3   14.7  1013.6  0.00  0.00   0.007   0.000   26.7    44   13.5   26.4   8.15  .0724    117    1    100.0    5 
28/05/16  10:15   16.4   16.4   16.2    83   13.5  10.0   NNE   0.83  17.0    NE   14.8   16.5   14.9  1013.6  0.00  0.00   0.007   0.000   26.7    44   13.5   26.4   8.15  .0724    117    1    100.0    5 
28/05/16  10:20   16.7   16.7   16.4    83   13.8   8.0   NNE   0.67  15.0   NNE   16.1   16.9   16.3  1013.7  0.00  0.00   0.006   0.000   26.8    44   13.5   26.5   8.15  .0724    118    1    100.0    5 
28/05/16  10:25   16.9   16.9   16.7    83   14.0   6.0   NNE   0.50  13.0    NE   16.9   17.1   17.1  1013.7  0.00  0.00   0.005   0.000   26.7    44   13.5   26.4   8.15  .0724    116    1    100.0    5 
28/05/16  10:30   17.1   17.1   16.9    82   14.0   4.0   NNE   0.33   9.0   NNE   17.1   17.3   17.3  1013.7  0.00  0.00   0.004   0.000   26.8    44   13.5   26.5   8.15  .0724    117    1    100.0    5 
28/05/16  10:35   17.0   17.2   17.0    81   13.7   7.0   NNE   0.58  13.0   NNE   16.9   17.2   17.1  1013.7  0.00  0.00   0.005   0.000   26.8    44   13.5   26.5   8.15  .0724    117    1    100.0    5 
28/05/16  10:40   17.0   17.1   17.0    80   13.5   9.0   NNE   0.75  14.0     N   15.9   17.2   16.1  1013.7  0.00  0.00   0.005   0.000   26.8    44   13.6   26.6   8.15  .0724    116    1    100.0    5 
28/05/16  10:45   16.8   17.0   16.8    80   13.4   9.0   NNE   0.75  13.0   NNE   15.8   16.9   15.9  1013.7  0.00  0.00   0.005   0.000   26.8    44   13.6   26.6   8.15  .0724    117    1    100.0    5 
28/05/16  10:50   16.7   16.8   16.7    80   13.3   7.0    NE   0.58  12.0   NNE   16.6   16.8   16.7  1013.7  0.00  0.00   0.006   0.000   26.8    44   13.6   26.6   8.15  .0724    117    1    100.0    5 
28/05/16  10:55   16.7   16.7   16.7    80   13.3   8.0   NNE   0.67  14.0   NNE   16.1   16.8   16.2  1013.7  0.00  0.00   0.006   0.000   26.8    44   13.6   26.6   8.15  .0724    116    1    100.0    5 
28/05/16  11:00   16.7   16.7   16.7    80   13.3   7.0   NNE   0.58  16.0    NE   16.6   16.8   16.7  1013.7  0.00  0.00   0.006   0.000   26.8    44   13.6   26.6   8.15  .0724    117    1    100.0    5 
28/05/16  11:05   16.7   16.7   16.7    80   13.3   8.0    NE   0.67  13.0    NE   16.1   16.8   16.2  1013.6  0.00  0.00   0.006   0.000   26.9    44   13.6   26.6   8.15  .0724    117    1    100.0    5 
28/05/16  11:10   16.9   16.9   16.7    80   13.4   7.0    NE   0.58  14.0    NE   16.8   17.0   16.9  1013.5  0.00  0.00   0.005   0.000   26.9    44   13.6   26.6   8.15  .0724    115    1    100.0    5 
28/05/16  11:15   17.3   17.3   16.9    80   13.8   8.0    NE   0.67  15.0    NE   16.8   17.5   17.0  1013.6  0.00  0.00   0.003   0.000   26.9    44   13.6   26.6   8.15  .0724    117    1    100.0    5 
28/05/16  11:20   17.8   17.8   17.3    79   14.1   7.0   NNE   0.58  15.0   NNE   17.8   18.0   18.0  1013.5  0.00  0.00   0.002   0.000   26.9    44   13.6   26.6   8.15  .0724    114    1    100.0    5 
28/05/16  11:25   18.0   18.0   17.8    77   13.9   8.0   NNE   0.67  14.0    NE   17.6   18.2   17.8  1013.6  0.00  0.00   0.001   0.000   26.9    44   13.6   26.6   8.15  .0724    116    1    100.0    5 
28/05/16  11:30   18.4   18.4   18.0    77   14.3   7.0   NNE   0.58  12.0    NE   18.4   18.7   18.7  1013.6  0.00  0.00   0.000   0.000   26.9    44   13.7   26.7   8.15  .0724    117    1    100.0    5 
28/05/16  11:35   18.4   18.5   18.4    75   13.9   9.0   NNE   0.75  15.0    NE   17.7   18.6   17.8  1013.6  0.00  0.00   0.000   0.000   26.9    44   13.7   26.7   8.15  .0724    117    1    100.0    5 
28/05/16  11:40   18.4   18.4   18.4    75   13.9   7.0    NE   0.58  14.0   ENE   18.4   18.6   18.6  1013.5  0.00  0.00   0.000   0.000   27.0    44   13.7   26.7   8.15  .0723    117    1    100.0    5 
28/05/16  11:45   18.5   18.5   18.4    75   14.0   6.0    NE   0.50  14.0   ENE   18.5   18.7   18.7  1013.5  0.00  0.00   0.000   0.001   27.0    44   13.7   26.7   8.15  .0723    117    1    100.0    5 
28/05/16  11:50   18.4   18.5   18.4    76   14.1   9.0    NE   0.75  14.0   ENE   17.7   18.7   17.9  1013.4  0.00  0.00   0.000   0.000   27.0    44   13.7   26.7   8.15  .0723    117    1    100.0    5 
28/05/16  11:55   18.3   18.5   18.3    75   13.8   8.0    NE   0.67  14.0   NNE   18.0   18.5   18.2  1013.4  0.00  0.00   0.000   0.000   27.1    44   13.8   26.8   8.15  .0723    117    1    100.0    5 
28/05/16  12:00   18.1   18.3   18.1    76   13.8   8.0    NE   0.67  15.0    NE   17.7   18.3   17.9  1013.4  0.00  0.00   0.001   0.000   27.1    44   13.8   26.8   8.15  .0723    117    1    100.0    5 
28/05/16  12:05   17.9   18.1   17.9    77   13.8   6.0    NE   0.50  11.0    NE   17.9   18.1   18.1  1013.4  0.00  0.00   0.002   0.000   27.1    44   13.8   26.8   8.15  .0723    117    1    100.0    5 
28/05/16  12:10   17.6   17.9   17.6    77   13.5   7.0    NE   0.58  12.0    NE   17.6   17.7   17.7  1013.4  0.00  0.00   0.003   0.000   27.1    44   13.8   26.8   8.15  .0723    117    1    100.0    5 
28/05/16  12:15   17.1   17.6   17.1    77   13.0   9.0   NNE   0.75  14.0    NE   16.0   17.1   16.0  1013.5  0.00  0.00   0.004   0.000   27.1    44   13.8   26.8   8.15  .0723    117    1    100.0    5 
28/05/16  12:20   16.7   17.1   16.7    79   13.0   8.0    NE   0.67  14.0   NNE   16.1   16.7   16.1  1013.4  0.00  0.00   0.006   0.000   27.1    44   13.8   26.8   8.15  .0723    117    1    100.0    5 
28/05/16  12:25   16.4   16.7   16.4    80   13.0   7.0   NNE   0.58  14.0   ENE   16.2   16.5   16.3  1013.3  0.00  0.00   0.007   0.000   27.2    44   13.9   26.9   8.15  .0723    118    1    100.0    5 
28/05/16  12:30   16.3   16.4   16.3    81   13.1   6.0    NE   0.50  10.0   ENE   16.3   16.4   16.3  1013.3  0.00  0.00   0.007   0.000   27.1    44   13.8   26.8   8.15  .0723    116    1    100.0    5 
28/05/16  12:35   16.3   16.3   16.3    81   13.1   5.0   NNE   0.42  11.0   ENE   16.3   16.4   16.4  1013.3  0.00  0.00   0.007   0.000   27.1    44   13.8   26.8   8.15  .0723    117    1    100.0    5 
28/05/16  12:40   16.3   16.3   16.3    82   13.2   5.0   NNE   0.42  10.0   NNE   16.3   16.3   16.3  1013.3  0.00  0.00   0.007   0.000   27.2    44   13.9   26.9   8.15  .0723    117    1    100.0    5 
28/05/16  12:45   16.3   16.3   16.3    82   13.2   5.0   NNE   0.42   9.0   NNE   16.3   16.3   16.3  1013.4  0.00  0.00   0.007   0.000   27.2    44   13.9   26.9   8.15  .0723    116    1    100.0    5 
28/05/16  12:50   16.2   16.3   16.2    82   13.1   3.0   ENE   0.25   8.0    NE   16.2   16.3   16.3  1013.4  0.00  0.00   0.007   0.000   27.2    44   13.9   26.9   8.15  .0723    117    1    100.0    5 
28/05/16  12:55   16.2   16.2   16.2    83   13.3   6.0    NE   0.50  10.0    NE   16.1   16.3   16.2  1013.3  0.00  0.00   0.007   0.000   27.2    44   13.9   26.9   8.15  .0723    117    1    100.0    5 
28/05/16  13:00   16.3   16.3   16.2    83   13.4   4.0   NNE   0.33  11.0   NNE   16.3   16.4   16.4  1013.3  0.00  0.00   0.007   0.000   27.2    44   13.9   26.9   8.15  .0723    115    1    100.0    5 
28/05/16  13:05   16.3   16.3   16.3    83   13.4   7.0   NNE   0.58  13.0   NNE   16.0   16.4   16.1  1013.3  0.00  0.00   0.007   0.000   27.2    44   13.9   26.9   8.15  .0723    117    1    100.0    5 
28/05/16  13:10   16.4   16.4   16.3    84   13.7   8.0   NNE   0.67  14.0   NNE   15.8   16.6   15.9  1013.2  0.00  0.00   0.007   0.000   27.2    44   13.9   26.9   8.15  .0723    116    1    100.0    5 
28/05/16  13:15   16.8   16.8   16.5    84   14.1   8.0   NNE   0.67  12.0   NNE   16.3   17.0   16.4  1013.1  0.00  0.00   0.005   0.000   27.2    44   13.9   26.9   8.15  .0722    117    1    100.0    5 
28/05/16  13:20   17.1   17.1   16.8    83   14.2   9.0   NNE   0.75  14.0    NE   16.1   17.3   16.3  1013.0  0.00  0.00   0.004   0.000   27.2    44   13.9   26.9   8.15  .0722    117    1    100.0    5 
28/05/16  13:25   17.6   17.6   17.1    82   14.4  11.0   NNE   0.92  16.0    NE   15.8   17.8   16.1  1013.0  0.00  0.00   0.003   0.000   27.2    44   13.9   26.9   8.15  .0722    116    1    100.0    5 
28/05/16  13:30   17.7   17.7   17.6    81   14.4   8.0    NE   0.67  14.0    NE   17.2   17.9   17.5  1013.0  0.00  0.00   0.002   0.000   27.2    44   13.9   26.9   8.15  .0722    118    1    100.0    5 
28/05/16  13:35   17.9   17.9   17.7    81   14.6   8.0   NNE   0.67  13.0   NNE   17.4   18.2   17.8  1012.9  0.00  0.00   0.002   0.000   27.3    44   14.0   27.0   8.15  .0722    117    1    100.0    5 
28/05/16  13:40   18.3   18.3   17.9    80   14.8   9.0   NNE   0.75  13.0   NNE   17.6   18.7   17.9  1013.0  0.00  0.00   0.000   0.000   27.3    44   14.0   27.0   8.15  .0722    117    1    100.0    5 
28/05/16  13:45   18.5   18.5   18.3    79   14.8   7.0   NNE   0.58  15.0    NE   18.5   18.9   18.9  1013.0  0.00  0.00   0.000   0.001   27.3    44   14.0   27.1   8.15  .0722    116    1    100.0    5 
28/05/16  13:50   18.7   18.7   18.6    79   14.9   6.0   NNE   0.50  14.0   ENE   18.7   19.1   19.1  1013.0  0.00  0.00   0.000   0.001   27.3    44   14.0   27.1   8.15  .0722    117    1    100.0    5 
28/05/16  13:55   18.7   18.7   18.7    78   14.8   7.0   NNE   0.58  13.0    NE   18.7   19.1   19.1  1012.9  0.00  0.00   0.000   0.001   27.3    44   14.0   27.1   8.15  .0722    117    1    100.0    5 
28/05/16  14:00   18.9   18.9   18.8    78   15.0   7.0   NNE   0.58  11.0   NNE   18.9   19.4   19.4  1012.8  0.00  0.00   0.000   0.002   27.3    44   14.0   27.1   8.15  .0722    117    1    100.0    5 
28/05/16  14:05   19.0   19.0   18.9    78   15.1   6.0   NNE   0.50  10.0   NNE   19.0   19.4   19.4  1012.8  0.00  0.00   0.000   0.002   27.4    44   14.1   27.2   8.15  .0722    117    1    100.0    5 
28/05/16  14:10   19.2   19.2   19.0    78   15.2   4.0   NNE   0.33   8.0   NNE   19.2   19.6   19.6  1012.7  0.00  0.00   0.000   0.003   27.4    44   14.1   27.2   8.15  .0721    117    1    100.0    5 
28/05/16  14:15   19.2   19.2   19.1    78   15.3   6.0   NNE   0.50  10.0    NE   19.2   19.7   19.7  1012.7  0.00  0.00   0.000   0.003   27.4    44   14.1   27.2   8.15  .0721    116    1    100.0    5 
28/05/16  14:20   19.6   19.6   19.3    77   15.4   6.0   NNE   0.50  11.0   ENE   19.6   20.1   20.1  1012.7  0.00  0.00   0.000   0.004   27.4    44   14.1   27.2   8.15  .0721    117    1    100.0    5 
28/05/16  14:25   19.8   19.8   19.6    76   15.5   7.0    NE   0.58  13.0    NE   19.8   20.3   20.3  1012.6  0.00  0.00   0.000   0.005   27.5    44   14.2   27.3   8.15  .0721    116    1    100.0    5 
28/05/16  14:30   20.1   20.1   19.8    76   15.7   5.0   NNE   0.42  11.0    NE   20.1   20.6   20.6  1012.6  0.00  0.00   0.000   0.006   27.5    44   14.2   27.3   8.15  .0721    117    1    100.0    5 
95792